Data for 10/23/2007

Time Sea-Level Adjusted Pressure Absolute Pressure Temperature Relative Humidity Dew Point Precipitation   
(mb) (inHg) (mb) (inHg) (C) (F) (%) (C) (F) (mm) (in)
00:01 1032 30.47 861 25.43 7.5 45.6 68 2 35.6 0
00:02 1032 30.47 861 25.43 7.6 45.6 68 2.1 35.7 0
00:03 1032 30.47 861 25.43 7.5 45.5 69 2.1 35.8 0
00:04 1032 30.47 861 25.43 7.4 45.4 69 2.2 35.9 0
00:05 1032 30.47 861 25.43 7.4 45.2 70 2.2 36 0
00:06 1032 30.47 861 25.43 7.3 45.1 70 2.2 35.9 0
00:07 1032 30.47 861 25.43 7.2 45 70 2.1 35.9 0
00:08 1032 30.47 861 25.43 7.2 44.9 70 2.2 35.9 0
00:09 1032 30.47 861 25.43 7.3 45.1 71 2.3 36.1 0
00:10 1032 30.47 861 25.43 7.4 45.4 71 2.4 36.4 0
00:11 1032 30.47 861 25.43 7.5 45.6 70 2.5 36.5 0
00:12 1032 30.47 861 25.43 7.7 45.8 69 2.5 36.4 0
00:13 1032 30.47 861 25.43 7.9 46.2 68 2.4 36.4 0
00:14 1032 30.47 861 25.43 8.1 46.6 67 2.4 36.3 0
00:15 1032 30.47 861 25.43 8.4 47 66 2.4 36.4 0
00:16 1032 30.47 861 25.43 8.4 47.2 66 2.5 36.4 0
00:17 1032 30.47 861 25.43 8.5 47.2 66 2.5 36.5 0
00:18 1032 30.47 861 25.43 8.4 47.2 66 2.4 36.4 0
00:19 1032 30.47 861 25.43 8.5 47.3 65 2.3 36.1 0
00:20 1032 30.47 861 25.43 8.6 47.5 65 2.4 36.4 0
00:21 1032 30.47 861 25.43 8.6 47.5 65 2.4 36.4 0
00:22 1032 30.47 861 25.43 8.6 47.5 65 2.4 36.3 0
00:23 1032 30.47 861 25.43 8.6 47.5 65 2.4 36.2 0
00:24 1032 30.47 861 25.43 8.6 47.5 64 2.3 36.2 0
00:25 1032 30.47 861 25.43 8.7 47.7 65 2.5 36.5 0
00:26 1032 30.47 861 25.43 8.7 47.6 65 2.4 36.4 0
00:27 1032 30.47 861 25.43 8.6 47.4 65 2.4 36.3 0
00:28 1032 30.47 861 25.43 8.5 47.4 65 2.3 36.2 0
00:29 1032 30.47 861 25.43 8.5 47.2 65 2.4 36.3 0
00:30 1032 30.47 861 25.43 8.3 47 66 2.4 36.3 0
00:31 1032 30.47 861 25.43 8.3 46.9 66 2.4 36.3 0
00:32 1032 30.47 861 25.43 8.2 46.7 67 2.4 36.3 0
00:33 1032 30.47 861 25.43 8.1 46.6 67 2.4 36.3 0
00:34 1032 30.47 861 25.43 8.1 46.6 67 2.4 36.3 0
00:35 1032 30.47 861 25.43 8.1 46.5 67 2.3 36.1 0
00:36 1032 30.47 861 25.43 8.1 46.6 67 2.3 36.2 0
00:37 1032 30.47 861 25.43 8.1 46.6 67 2.4 36.4 0
00:38 1032 30.47 861 25.43 8 46.5 68 2.4 36.4 0
00:39 1032 30.47 861 25.43 7.9 46.3 68 2.4 36.4 0
00:40 1032 30.47 861 25.43 7.9 46.2 68 2.4 36.3 0
00:41 1032 30.47 861 25.43 7.9 46.1 68 2.3 36.2 0
00:42 1032 30.47 861 25.43 7.9 46.2 67 2.3 36.1 0
00:43 1032 30.47 861 25.43 8 46.3 67 2.3 36.1 0
00:44 1032 30.47 861 25.43 7.9 46.3 67 2.3 36.1 0
00:45 1032 30.47 861 25.43 7.9 46.2 68 2.4 36.3 0
00:46 1032 30.47 861 25.43 7.9 46.2 68 2.4 36.3 0
00:47 1032 30.47 861 25.43 7.9 46.3 67 2.3 36.1 0
00:48 1032 30.47 861 25.43 8.1 46.6 66 2.2 36 0
00:49 1032 30.47 861 25.43 8.2 46.8 66 2.4 36.3 0
00:50 1032 30.47 861 25.43 8.3 46.9 66 2.4 36.3 0
00:51 1032 30.47 861 25.43 8.3 47 66 2.4 36.4 0
00:52 1032 30.47 861 25.43 8.3 47 66 2.4 36.3 0
00:53 1032 30.47 861 25.43 8.4 47.1 66 2.4 36.4 0
00:54 1032 30.47 861 25.43 8.4 47.1 66 2.4 36.3 0
00:55 1032 30.47 861 25.43 8.4 47.1 66 2.4 36.2 0
00:56 1032 30.47 861 25.43 8.3 47 66 2.4 36.3 0
00:57 1032 30.47 861 25.43 8.3 47 66 2.4 36.3 0
00:58 1032 30.47 861 25.43 8.3 47 66 2.4 36.3 0
00:59 1032 30.47 861 25.43 8.3 47 66 2.3 36.2 0
01:00 1032 30.47 861 25.43 8.3 46.9 66 2.3 36.2 0
01:01 1032 30.47 861 25.43 8.3 46.9 66 2.2 36 0
01:02 1032 30.47 861 25.43 8.3 47 65 2.2 36 0
01:03 1032 30.47 861 25.43 8.4 47.1 65 2.3 36.1 0
01:04 1032 30.47 861 25.43 8.3 47 65 2.2 36 0
01:05 1032 30.47 861 25.43 8.3 47 65 2.2 36 0
01:06 1032 30.47 861 25.43 8.4 47.1 65 2.3 36.2 0
01:07 1032 30.47 861 25.43 8.4 47.2 66 2.4 36.3 0
01:08 1032 30.47 861 25.43 8.4 47.1 66 2.3 36.2 0
01:09 1032 30.47 861 25.43 8.4 47.2 66 2.4 36.4 0
01:10 1032 30.47 861 25.43 8.4 47.2 66 2.4 36.3 0
01:11 1032 30.47 861 25.43 8.5 47.3 66 2.5 36.4 0
01:12 1032 30.47 861 25.43 8.5 47.2 66 2.4 36.4 0
01:13 1032 30.47 861 25.43 8.5 47.2 66 2.4 36.4 0
01:14 1032 30.47 861 25.43 8.4 47.2 66 2.5 36.5 0
01:15 1032 30.47 861 25.43 8.3 47 67 2.5 36.5 0
01:16 1032 30.47 861 25.43 8.1 46.6 67 2.4 36.3 0
01:17 1032 30.47 861 25.43 7.9 46.2 67 2.3 36.1 0
01:18 1032 30.47 861 25.43 7.7 45.9 67 2.1 35.7 0
01:19 1032 30.47 862 25.45 7.9 46.3 65 1.9 35.3 0
01:20 1032 30.47 862 25.45 8.3 46.9 64 1.9 35.3 0
01:21 1032 30.47 862 25.45 8.6 47.4 63 1.9 35.5 0
01:22 1032 30.47 861 25.43 8.8 47.9 62 2 35.5 0
01:23 1032 30.47 861 25.43 8.9 48 62 2.1 35.7 0
01:24 1032 30.47 861 25.43 8.9 47.9 63 2.3 36.1 0
01:25 1032 30.47 861 25.43 8.7 47.6 65 2.4 36.3 0
01:26 1032 30.47 861 25.43 8.4 47.2 65 2.3 36.2 0
01:27 1032 30.47 861 25.43 8.2 46.8 66 2.4 36.3 0
01:28 1032 30.47 861 25.43 8.1 46.5 67 2.3 36.1 0
01:29 1032 30.47 862 25.45 7.9 46.2 67 2.3 36.1 0
01:30 1032 30.47 862 25.45 7.7 45.9 68 2.2 36 0
01:31 1032 30.47 862 25.45 7.7 45.8 68 2.2 35.9 0
01:32 1032 30.47 862 25.45 7.6 45.6 68 2.1 35.8 0
01:33 1032 30.47 862 25.45 7.5 45.5 68 2 35.7 0
01:34 1032 30.47 862 25.45 7.6 45.6 67 1.9 35.5 0
01:35 1032 30.47 862 25.45 7.7 45.8 67 2 35.6 0
01:36 1032 30.47 862 25.45 7.8 46 67 2 35.7 0
01:37 1032 30.47 862 25.45 7.7 45.9 68 2.2 35.9 0
01:38 1032 30.47 862 25.45 7.5 45.5 68 2.1 35.8 0
01:39 1032 30.47 862 25.45 7.4 45.3 69 2.1 35.7 0
01:40 1032 30.47 862 25.45 7.4 45.3 68 1.9 35.4 0
01:41 1032 30.47 862 25.45 7.5 45.5 68 2 35.5 0
01:42 1032 30.47 862 25.45 7.6 45.7 67 2 35.5 0
01:43 1032 30.47 862 25.45 7.7 45.9 67 2 35.6 0
01:44 1032 30.47 862 25.45 7.7 45.9 67 2 35.6 0
01:45 1032 30.47 862 25.45 7.6 45.7 67 2 35.5 0
01:46 1033 30.5 862 25.45 7.5 45.6 68 2 35.6 0
01:47 1033 30.5 862 25.45 7.4 45.4 68 2 35.6 0
01:48 1033 30.5 862 25.45 7.4 45.2 69 2 35.6 0
01:49 1033 30.5 862 25.45 7.4 45.2 69 2 35.6 0
01:50 1033 30.5 862 25.45 7.3 45.1 69 2 35.5 0
01:51 1033 30.5 862 25.45 7.3 45.1 69 2 35.5 0
01:52 1033 30.5 862 25.45 7.2 45 69 1.9 35.5 0
01:53 1033 30.5 862 25.45 7.3 45.1 69 1.9 35.5 0
01:54 1033 30.5 862 25.45 7.3 45.2 68 1.9 35.4 0
01:55 1033 30.5 862 25.45 7.3 45.2 68 1.9 35.4 0
01:56 1033 30.5 862 25.45 7.4 45.2 68 1.8 35.3 0
01:57 1033 30.5 862 25.45 7.4 45.2 68 1.8 35.3 0
01:58 1033 30.5 862 25.45 7.4 45.3 68 1.9 35.4 0
01:59 1033 30.5 862 25.45 7.4 45.3 68 1.9 35.5 0
02:00 1033 30.5 862 25.45 7.4 45.3 68 1.9 35.4 0
02:01 1033 30.5 862 25.45 7.4 45.3 68 1.9 35.4 0
02:02 1033 30.5 862 25.45 7.3 45.1 68 1.9 35.4 0
02:03 1033 30.5 862 25.45 7.2 45 69 1.9 35.5 0
02:04 1033 30.5 862 25.45 7.1 44.8 69 1.9 35.4 0
02:05 1033 30.5 862 25.45 7.1 44.7 70 1.9 35.5 0
02:06 1033 30.5 862 25.45 7.1 44.8 70 1.9 35.5 0
02:07 1033 30.5 862 25.45 7 44.7 70 1.9 35.5 0
02:08 1033 30.5 862 25.45 7 44.7 70 1.9 35.5 0
02:09 1033 30.5 862 25.45 7.2 44.9 69 2 35.5 0
02:10 1033 30.5 862 25.45 7.2 44.9 69 1.9 35.5 0
02:11 1033 30.5 862 25.45 7.1 44.8 70 2 35.5 0
02:12 1033 30.5 862 25.45 6.9 44.3 71 1.9 35.4 0
02:13 1033 30.5 862 25.45 6.8 44.3 71 1.9 35.4 0
02:14 1033 30.5 862 25.45 6.8 44.3 70 1.8 35.3 0
02:15 1033 30.5 862 25.45 6.8 44.2 71 1.8 35.3 0
02:16 1033 30.5 862 25.45 6.8 44.3 71 1.9 35.3 0
02:17 1033 30.5 862 25.45 6.9 44.4 70 1.9 35.4 0
02:18 1033 30.5 862 25.45 7 44.7 70 1.9 35.4 0
02:19 1033 30.5 862 25.45 7.1 44.8 70 1.9 35.5 0
02:20 1033 30.5 862 25.45 7 44.7 70 1.9 35.5 0
02:21 1033 30.5 862 25.45 7 44.7 70 2 35.6 0
02:22 1033 30.5 862 25.45 7.1 44.7 70 1.9 35.4 0
02:23 1033 30.5 862 25.45 7.2 44.9 69 2 35.5 0
02:24 1033 30.5 862 25.45 7.2 44.9 70 2 35.6 0
02:25 1033 30.5 862 25.45 7.1 44.9 70 2 35.7 0
02:26 1033 30.5 862 25.45 7.1 44.7 70 2 35.6 0
02:27 1033 30.5 862 25.45 7 44.7 71 2.1 35.7 0
02:28 1033 30.5 862 25.45 6.9 44.4 71 2 35.6 0
02:29 1033 30.5 862 25.45 6.8 44.3 71 2 35.6 0
02:30 1033 30.5 862 25.45 6.9 44.4 71 2 35.7 0
02:31 1033 30.5 862 25.45 7 44.7 71 2.1 35.8 0
02:32 1033 30.5 862 25.45 7.1 44.8 70 2 35.7 0
02:33 1033 30.5 862 25.45 7.3 45.2 69 2.1 35.8 0
02:34 1033 30.5 862 25.45 7.4 45.4 69 2.1 35.7 0
02:35 1033 30.5 862 25.45 7.5 45.5 69 2.1 35.8 0
02:36 1033 30.5 862 25.45 7.5 45.5 69 2.1 35.8 0
02:37 1033 30.5 862 25.45 7.6 45.6 68 2.1 35.7 0
02:38 1033 30.5 862 25.45 7.6 45.7 68 2.1 35.8 0
02:39 1033 30.5 862 25.45 7.6 45.8 68 2.2 35.9 0
02:40 1033 30.5 862 25.45 7.6 45.6 68 2.1 35.8 0
02:41 1033 30.5 862 25.45 7.6 45.6 68 2.1 35.8 0
02:42 1033 30.5 862 25.45 7.5 45.4 68 2.1 35.7 0
02:43 1033 30.5 862 25.45 7.5 45.4 68 2 35.6 0
02:44 1033 30.5 862 25.45 7.5 45.4 68 2 35.6 0
02:45 1033 30.5 862 25.45 7.4 45.4 69 2 35.7 0
02:46 1033 30.5 862 25.45 7.4 45.3 69 2.1 35.7 0
02:47 1033 30.5 862 25.45 7.3 45.2 69 2.1 35.7 0
02:48 1033 30.5 862 25.45 7.3 45.1 69 2 35.6 0
02:49 1033 30.5 862 25.45 7.2 44.9 69 1.9 35.5 0
02:50 1033 30.5 862 25.45 7.2 44.9 69 1.9 35.4 0
02:51 1033 30.5 862 25.45 7.2 44.9 69 1.9 35.5 0
02:52 1033 30.5 862 25.45 7.1 44.8 70 1.9 35.5 0
02:53 1033 30.5 862 25.45 7.1 44.7 70 1.9 35.5 0
02:54 1033 30.5 862 25.45 7 44.6 70 1.9 35.4 0
02:55 1033 30.5 862 25.45 7 44.6 70 1.9 35.4 0
02:56 1033 30.5 862 25.45 7 44.5 70 1.9 35.3 0
02:57 1033 30.5 862 25.45 7 44.6 70 1.9 35.4 0
02:58 1033 30.5 862 25.45 7 44.6 70 1.9 35.4 0
02:59 1033 30.5 862 25.45 7.1 44.8 69 1.9 35.4 0
03:00 1033 30.5 862 25.45 7.1 44.8 69 1.9 35.4 0
03:01 1033 30.5 862 25.45 7.1 44.7 69 1.9 35.4 0
03:02 1033 30.5 862 25.45 7.1 44.7 69 1.8 35.3 0
03:03 1033 30.5 862 25.45 7 44.6 70 1.8 35.3 0
03:04 1033 30.5 862 25.45 6.9 44.5 70 1.9 35.3 0
03:05 1033 30.5 862 25.45 6.9 44.4 70 1.8 35.2 0
03:06 1033 30.5 862 25.45 6.9 44.5 70 1.8 35.2 0
03:07 1033 30.5 862 25.45 6.9 44.5 70 1.8 35.3 0
03:08 1033 30.5 862 25.45 6.9 44.4 70 1.8 35.3 0
03:09 1033 30.5 862 25.45 6.8 44.3 70 1.8 35.3 0
03:10 1033 30.5 862 25.45 6.8 44.2 71 1.8 35.2 0
03:11 1033 30.5 862 25.45 6.7 44.1 71 1.8 35.2 0
03:12 1033 30.5 862 25.45 6.7 44 71 1.8 35.2 0
03:13 1033 30.5 862 25.45 6.7 44 71 1.8 35.2 0
03:14 1033 30.5 862 25.45 6.7 44 71 1.8 35.2 0
03:15 1033 30.5 862 25.45 6.7 44.1 71 1.8 35.2 0
03:16 1033 30.5 862 25.45 6.7 44.1 71 1.8 35.2 0
03:17 1033 30.5 862 25.45 6.8 44.2 71 1.8 35.2 0
03:18 1033 30.5 862 25.45 6.8 44.3 70 1.8 35.2 0
03:19 1033 30.5 862 25.45 6.8 44.3 70 1.8 35.2 0
03:20 1033 30.5 862 25.45 6.8 44.3 70 1.8 35.3 0
03:21 1033 30.5 862 25.45 6.8 44.2 70 1.8 35.2 0
03:22 1033 30.5 862 25.45 6.8 44.2 70 1.8 35.2 0
03:23 1033 30.5 862 25.45 6.8 44.2 71 1.8 35.3 0
03:24 1033 30.5 862 25.45 6.8 44.2 71 1.8 35.3 0
03:25 1033 30.5 862 25.45 6.7 44.1 71 1.8 35.3 0
03:26 1033 30.5 862 25.45 6.7 44 71 1.9 35.3 0
03:27 1033 30.5 862 25.45 6.6 43.9 72 1.9 35.4 0
03:28 1033 30.5 862 25.45 6.6 43.9 72 1.9 35.5 0
03:29 1033 30.5 862 25.45 6.5 43.8 72 1.9 35.4 0
03:30 1033 30.5 862 25.45 6.4 43.6 72 1.9 35.3 0
03:31 1033 30.5 862 25.45 6.4 43.5 73 1.9 35.3 0
03:32 1033 30.5 862 25.45 6.4 43.5 73 1.8 35.3 0
03:33 1033 30.5 862 25.45 6.4 43.5 73 1.9 35.4 0
03:34 1033 30.5 862 25.45 6.4 43.4 73 1.9 35.4 0
03:35 1033 30.5 862 25.45 6.3 43.4 73 1.8 35.3 0
03:36 1033 30.5 862 25.45 6.3 43.3 73 1.8 35.3 0
03:37 1033 30.5 862 25.45 6.3 43.3 73 1.8 35.3 0
03:38 1033 30.5 862 25.45 6.3 43.4 73 1.8 35.3 0
03:39 1033 30.5 862 25.45 6.3 43.4 73 1.9 35.4 0
03:40 1033 30.5 862 25.45 6.3 43.4 73 1.8 35.3 0
03:41 1033 30.5 862 25.45 6.3 43.4 73 1.8 35.3 0
03:42 1033 30.5 862 25.45 6.3 43.4 73 1.8 35.3 0
03:43 1033 30.5 862 25.45 6.3 43.3 73 1.8 35.2 0
03:44 1033 30.5 862 25.45 6.3 43.3 73 1.8 35.2 0
03:45 1033 30.5 862 25.45 6.3 43.4 73 1.8 35.3 0
03:46 1033 30.5 862 25.45 6.4 43.5 73 1.8 35.3 0
03:47 1033 30.5 862 25.45 6.3 43.4 73 1.8 35.2 0
03:48 1033 30.5 862 25.45 6.3 43.4 73 1.8 35.2 0
03:49 1033 30.5 862 25.45 6.3 43.4 73 1.8 35.2 0
03:50 1033 30.5 862 25.45 6.3 43.3 73 1.8 35.2 0
03:51 1033 30.5 862 25.45 6.3 43.3 73 1.8 35.2 0
03:52 1033 30.5 862 25.45 6.3 43.3 73 1.7 35.1 0
03:53 1033 30.5 862 25.45 6.3 43.3 73 1.7 35.1 0
03:54 1033 30.5 862 25.45 6.3 43.3 73 1.7 35.1 0
03:55 1033 30.5 862 25.45 6.3 43.3 73 1.7 35.1 0
03:56 1033 30.5 862 25.45 6.2 43.2 73 1.7 35 0
03:57 1033 30.5 862 25.45 6.2 43.1 73 1.7 35 0
03:58 1033 30.5 862 25.45 6.2 43.2 73 1.7 35 0
03:59 1033 30.5 862 25.45 6.3 43.3 72 1.7 35 0
04:00 1033 30.5 862 25.45 6.2 43.2 72 1.6 34.9 0
04:01 1033 30.5 862 25.45 6.2 43.2 72 1.6 35 0
04:02 1033 30.5 862 25.45 6.2 43.2 72 1.6 34.9 0
04:03 1033 30.5 862 25.45 6.2 43.2 72 1.5 34.8 0
04:04 1033 30.5 862 25.45 6.1 43 72 1.6 34.8 0
04:05 1033 30.5 862 25.45 6 42.8 73 1.5 34.7 0
04:06 1033 30.5 862 25.45 5.8 42.5 73 1.4 34.6 0
04:07 1033 30.5 862 25.45 5.7 42.2 74 1.4 34.5 0
04:08 1033 30.5 862 25.45 5.8 42.4 73 1.4 34.5 0
04:09 1033 30.5 862 25.45 5.8 42.4 73 1.4 34.5 0
04:10 1033 30.5 862 25.45 5.7 42.3 74 1.4 34.5 0
04:11 1033 30.5 862 25.45 5.6 42.1 74 1.4 34.5 0
04:12 1033 30.5 862 25.45 5.5 41.9 74 1.3 34.4 0
04:13 1033 30.5 862 25.45 5.4 41.7 74 1.2 34.1 0
04:14 1033 30.5 862 25.45 5.2 41.3 75 1.2 34.1 0
04:15 1033 30.5 862 25.45 5.1 41.1 76 1.3 34.3 0
04:16 1033 30.5 862 25.45 5 41 77 1.2 34.2 0
04:17 1033 30.5 862 25.45 5 41 76 1.2 34.1 0
04:18 1033 30.5 862 25.45 4.9 40.8 77 1.2 34.2 0
04:19 1033 30.5 862 25.45 4.9 40.7 78 1.3 34.3 0
04:20 1033 30.5 862 25.45 4.8 40.7 78 1.2 34.2 0
04:21 1033 30.5 862 25.45 4.8 40.6 77 1.1 34 0
04:22 1033 30.5 862 25.45 4.7 40.4 77 1 33.8 0
04:23 1033 30.5 862 25.45 4.5 40.2 78 1 33.7 0
04:24 1033 30.5 862 25.45 4.4 39.9 79 1.1 33.9 0
04:25 1033 30.5 862 25.45 4.2 39.6 80 1.1 34 0
04:26 1033 30.5 862 25.45 4.2 39.6 81 1.2 34.2 0
04:27 1033 30.5 862 25.45 4.3 39.8 80 1.2 34.2 0
04:28 1033 30.5 862 25.45 4.4 39.9 79 1.1 33.9 0
04:29 1033 30.5 862 25.45 4.2 39.6 80 1.1 34.1 0
04:30 1033 30.5 862 25.45 4.2 39.6 80 1.1 34.1 0
04:31 1033 30.5 862 25.45 4.2 39.6 80 1.1 34.1 0
04:32 1033 30.5 862 25.45 4.2 39.6 80 1.1 34 0
04:33 1033 30.5 862 25.45 4.2 39.6 80 1.1 34.1 0
04:34 1033 30.5 862 25.45 4.2 39.6 80 1.1 33.9 0
04:35 1033 30.5 862 25.45 4.2 39.5 81 1.1 34.1 0
04:36 1033 30.5 862 25.45 4.1 39.4 81 1.2 34.1 0
04:37 1033 30.5 862 25.45 4.1 39.4 81 1.2 34.1 0
04:38 1033 30.5 862 25.45 4.1 39.5 81 1.1 34 0
04:39 1033 30.5 862 25.45 4.1 39.4 80 1 33.8 0
04:40 1033 30.5 862 25.45 4 39.2 80 0.9 33.6 0
04:41 1033 30.5 862 25.45 4 39.1 80 0.9 33.5 0
04:42 1033 30.5 862 25.45 3.7 38.7 80 0.7 33.2 0
04:43 1033 30.5 862 25.45 3.5 38.3 81 0.5 33 0
04:44 1033 30.5 862 25.45 3.3 37.9 82 0.5 32.8 0
04:45 1033 30.5 862 25.45 3 37.4 82 0.3 32.6 0
04:46 1033 30.5 862 25.45 2.8 37.1 87 0.9 33.7 0
04:47 1033 30.5 862 25.45 3.1 37.6 86 0.9 33.7 0
04:48 1033 30.5 862 25.45 3.4 38.1 84 1 33.8 0
04:49 1033 30.5 862 25.45 3.7 38.7 84 1.2 34.1 0
04:50 1033 30.5 862 25.45 4.1 39.4 81 1.1 34.1 0
04:51 1033 30.5 862 25.45 4.2 39.6 80 1.2 34.1 0
04:52 1033 30.5 862 25.45 4.3 39.7 80 1.2 34.2 0
04:53 1033 30.5 862 25.45 4.3 39.7 80 1.2 34.1 0
04:54 1033 30.5 862 25.45 4.2 39.6 81 1.2 34.2 0
04:55 1033 30.5 862 25.45 4.2 39.6 81 1.2 34.2 0
04:56 1033 30.5 862 25.45 4.1 39.4 81 1.1 34 0
04:57 1033 30.5 862 25.45 4 39.2 82 1.1 34 0
04:58 1033 30.5 862 25.45 3.8 38.9 82 1.1 33.9 0
04:59 1033 30.5 862 25.45 3.8 38.8 83 1.1 34 0
05:00 1033 30.5 862 25.45 3.8 38.8 83 1.2 34.1 0
05:01 1033 30.5 862 25.45 3.7 38.7 83 1.1 33.9 0
05:02 1033 30.5 862 25.45 3.6 38.4 82 0.8 33.4 0
05:03 1033 30.5 862 25.45 3.4 38.2 83 0.9 33.6 0
05:04 1033 30.5 862 25.45 3.3 37.9 84 0.8 33.4 0
05:05 1033 30.5 862 25.45 3.2 37.8 86 1 33.9 0
05:06 1033 30.5 862 25.45 3.3 37.9 86 1.1 34 0
05:07 1033 30.5 862 25.45 3.5 38.3 85 1.2 34.2 0
05:08 1033 30.5 862 25.45 3.7 38.6 85 1.3 34.4 0
05:09 1033 30.5 862 25.45 4 39.2 83 1.3 34.3 0
05:10 1033 30.5 862 25.45 4.2 39.6 80 1.1 33.9 0
05:11 1033 30.5 862 25.45 4 39.2 80 0.8 33.5 0
05:12 1033 30.5 862 25.45 3.8 38.8 81 0.8 33.5 0
05:13 1033 30.5 862 25.45 3.6 38.4 82 0.9 33.5 0
05:14 1033 30.5 862 25.45 3.5 38.4 84 1.1 34.1 0
05:15 1033 30.5 862 25.45 3.7 38.6 83 1 33.8 0
05:16 1033 30.5 862 25.45 3.7 38.6 81 0.7 33.3 0
05:17 1033 30.5 862 25.45 3.5 38.4 82 0.7 33.3 0
05:18 1033 30.5 862 25.45 3.4 38.2 83 0.9 33.6 0
05:19 1033 30.5 862 25.45 3.5 38.2 84 1 33.8 0
05:20 1033 30.5 862 25.45 3.6 38.4 83 0.9 33.7 0
05:21 1033 30.5 862 25.45 3.7 38.7 82 0.9 33.6 0
05:22 1033 30.5 862 25.45 3.6 38.6 82 0.9 33.6 0
05:23 1033 30.5 862 25.45 3.6 38.5 83 0.9 33.7 0
05:24 1033 30.5 862 25.45 3.6 38.5 82 0.9 33.5 0
05:25 1033 30.5 862 25.45 3.6 38.4 82 0.8 33.4 0
05:26 1033 30.5 862 25.45 3.5 38.2 83 0.9 33.6 0
05:27 1033 30.5 862 25.45 3.4 38.2 83 0.8 33.5 0
05:28 1033 30.5 862 25.45 3.4 38 83 0.7 33.3 0
05:29 1033 30.5 862 25.45 3.2 37.8 84 0.7 33.2 0
05:30 1033 30.5 862 25.45 3.1 37.5 84 0.6 33.1 0
05:31 1033 30.5 862 25.45 2.9 37.3 85 0.7 33.2 0
05:32 1033 30.5 862 25.45 3 37.3 85 0.7 33.3 0
05:33 1033 30.5 862 25.45 3 37.5 85 0.7 33.3 0
05:34 1033 30.5 862 25.45 3 37.4 83 0.4 32.6 0
05:35 1033 30.5 862 25.45 2.9 37.2 85 0.6 33.1 0
05:36 1033 30.5 862 25.45 2.9 37.2 87 0.9 33.7 0
05:37 1033 30.5 862 25.45 3.1 37.7 84 0.8 33.4 0
05:38 1033 30.5 862 25.45 3.2 37.7 84 0.7 33.3 0
05:39 1033 30.5 862 25.45 3.2 37.7 84 0.7 33.3 0
05:40 1033 30.5 862 25.45 3.1 37.6 84 0.6 33.1 0
05:41 1033 30.5 862 25.45 3 37.5 85 0.8 33.5 0
05:42 1033 30.5 862 25.45 3 37.5 85 0.8 33.4 0
05:43 1033 30.5 862 25.45 3.1 37.6 85 0.9 33.6 0
05:44 1033 30.5 862 25.45 3.1 37.6 85 0.9 33.6 0
05:45 1033 30.5 862 25.45 3.2 37.7 85 0.9 33.7 0
05:46 1033 30.5 862 25.45 3.2 37.8 85 0.9 33.6 0
05:47 1033 30.5 862 25.45 3.2 37.8 85 0.9 33.6 0
05:48 1033 30.5 862 25.45 3.3 37.9 84 0.8 33.5 0
05:49 1033 30.5 862 25.45 3.3 37.9 84 0.8 33.4 0
05:50 1033 30.5 863 25.48 3.2 37.8 84 0.7 33.3 0
05:51 1033 30.5 863 25.48 3.1 37.6 83 0.5 33 0
05:52 1033 30.5 862 25.45 3 37.4 85 0.7 33.3 0
05:53 1033 30.5 863 25.48 3 37.4 84 0.5 33 0
05:54 1033 30.5 862 25.45 2.9 37.2 85 0.6 33 0
05:55 1033 30.5 862 25.45 2.8 37.1 84 0.4 32.8 0
05:56 1033 30.5 862 25.45 2.6 36.7 85 0.4 32.7 0
05:57 1033 30.5 862 25.45 2.6 36.6 86 0.5 32.8 0
05:58 1033 30.5 863 25.48 2.5 36.5 86 0.4 32.8 0
05:59 1033 30.5 862 25.45 2.4 36.3 86 0.3 32.6 0
06:00 1033 30.5 862 25.45 2.3 36.1 88 0.5 32.8 0
06:01 1033 30.5 862 25.45 2.4 36.2 88 0.5 32.9 0
06:02 1033 30.5 863 25.48 2.4 36.4 87 0.5 32.9 0
06:03 1033 30.5 863 25.48 2.5 36.5 86 0.4 32.7 0
06:04 1033 30.5 863 25.48 2.3 36.2 86 0.2 32.4 0
06:05 1033 30.5 863 25.48 2.2 35.9 87 0.3 32.5 0
06:06 1033 30.5 863 25.48 2.1 35.8 88 0.4 32.6 0
06:07 1033 30.5 863 25.48 2.1 35.8 89 0.4 32.8 0
06:08 1033 30.5 862 25.45 2.3 36.1 88 0.4 32.8 0
06:09 1033 30.5 862 25.45 2.3 36.1 87 0.3 32.5 0
06:10 1033 30.5 862 25.45 2.2 35.9 87 0.3 32.5 0
06:11 1033 30.5 862 25.45 2.2 35.9 87 0.3 32.5 0
06:12 1033 30.5 862 25.45 2.3 36.1 87 0.4 32.7 0
06:13 1033 30.5 862 25.45 2.4 36.3 86 0.3 32.6 0
06:14 1033 30.5 862 25.45 2.5 36.5 85 0.3 32.5 0
06:15 1033 30.5 862 25.45 2.4 36.4 85 0.2 32.4 0
06:16 1033 30.5 862 25.45 2.3 36.2 85 0.1 32.2 0
06:17 1033 30.5 862 25.45 2.2 36 86 0.1 32.2 0
06:18 1033 30.5 862 25.45 2.3 36.1 87 0.3 32.5 0
06:19 1033 30.5 862 25.45 2.2 36 86 0.2 32.3 0
06:20 1033 30.5 863 25.48 2.1 35.9 87 0.1 32.2 0
06:21 1033 30.5 863 25.48 2.1 35.7 87 0.2 32.3 0
06:22 1033 30.5 863 25.48 2 35.6 88 0.2 32.4 0
06:23 1033 30.5 863 25.48 2.1 35.7 89 0.4 32.7 0
06:24 1033 30.5 863 25.48 2.2 35.9 89 0.5 32.9 0
06:25 1034 30.53 863 25.48 2.3 36.2 88 0.5 32.9 0
06:26 1034 30.53 863 25.48 2.5 36.5 87 0.6 33.1 0
06:27 1034 30.53 863 25.48 2.7 36.8 87 0.7 33.3 0
06:28 1034 30.53 863 25.48 2.9 37.2 86 0.8 33.4 0
06:29 1034 30.53 863 25.48 3.1 37.6 85 0.8 33.5 0
06:30 1034 30.53 863 25.48 3.3 37.9 84 0.9 33.5 0
06:31 1034 30.53 863 25.48 3.5 38.2 83 0.9 33.6 0
06:32 1034 30.53 863 25.48 3.7 38.6 82 0.9 33.6 0
06:33 1034 30.53 863 25.48 3.7 38.7 82 0.9 33.6 0
06:34 1034 30.53 863 25.48 3.7 38.6 82 0.9 33.6 0
06:35 1034 30.53 863 25.48 3.7 38.6 82 0.8 33.4 0
06:36 1034 30.53 863 25.48 3.7 38.6 82 0.8 33.5 0
06:37 1034 30.53 863 25.48 3.7 38.7 81 0.8 33.4 0
06:38 1034 30.53 863 25.48 3.8 38.8 81 0.8 33.4 0
06:39 1034 30.53 863 25.48 3.8 38.9 81 0.9 33.6 0
06:40 1034 30.53 863 25.48 4 39.3 80 0.8 33.5 0
06:41 1034 30.53 863 25.48 4 39.2 80 0.8 33.4 0
06:42 1034 30.53 863 25.48 3.9 39.1 79 0.6 33.1 0
06:43 1034 30.53 863 25.48 3.7 38.7 81 0.7 33.3 0
06:44 1034 30.53 863 25.48 3.8 38.8 80 0.7 33.3 0
06:45 1034 30.53 863 25.48 4.1 39.3 80 0.9 33.5 0
06:46 1034 30.53 863 25.48 4.2 39.5 79 0.8 33.5 0
06:47 1034 30.53 863 25.48 4.2 39.5 79 0.9 33.6 0
06:48 1034 30.53 863 25.48 4.1 39.4 80 0.9 33.6 0
06:49 1034 30.53 863 25.48 4.1 39.3 80 0.9 33.6 0
06:50 1034 30.53 863 25.48 4 39.2 81 1 33.8 0
06:51 1034 30.53 863 25.48 4 39.1 81 1 33.8 0
06:52 1034 30.53 863 25.48 4.1 39.4 80 1 33.9 0
06:53 1034 30.53 863 25.48 4.2 39.6 80 1.1 33.9 0
06:54 1034 30.53 863 25.48 4.4 39.9 79 1.1 34.1 0
06:55 1034 30.53 863 25.48 4.6 40.3 78 1.1 34.1 0
06:56 1034 30.53 863 25.48 4.7 40.5 78 1.3 34.3 0
06:57 1034 30.53 863 25.48 4.8 40.6 78 1.2 34.2 0
06:58 1034 30.53 863 25.48 4.8 40.6 78 1.2 34.2 0
06:59 1034 30.53 863 25.48 4.7 40.5 78 1.3 34.3 0
07:00 1034 30.53 863 25.48 4.6 40.3 79 1.3 34.3 0
07:01 1034 30.53 863 25.48 4.7 40.4 79 1.4 34.4 0
07:02 1034 30.53 863 25.48 4.7 40.5 79 1.4 34.6 0
07:03 1034 30.53 863 25.48 4.9 40.9 79 1.6 34.8 0
07:04 1034 30.53 863 25.48 5 41 79 1.6 34.9 0
07:05 1034 30.53 863 25.48 4.9 40.9 79 1.6 34.8 0
07:06 1034 30.53 863 25.48 4.9 40.7 79 1.5 34.7 0
07:07 1034 30.53 863 25.48 4.7 40.5 79 1.5 34.6 0
07:08 1034 30.53 863 25.48 4.6 40.3 79 1.4 34.5 0
07:09 1034 30.53 863 25.48 4.5 40.2 80 1.3 34.4 0
07:10 1034 30.53 863 25.48 4.5 40.1 80 1.3 34.4 0
07:11 1034 30.53 863 25.48 4.4 39.9 80 1.3 34.3 0
07:12 1034 30.53 863 25.48 4.4 39.9 80 1.3 34.3 0
07:13 1034 30.53 863 25.48 4.3 39.7 80 1.1 34 0
07:14 1034 30.53 863 25.48 4.2 39.6 80 1 33.9 0
07:15 1034 30.53 863 25.48 4.2 39.5 79 0.9 33.6 0
07:16 1034 30.53 863 25.48 4.1 39.3 80 1 33.7 0
07:17 1034 30.53 863 25.48 4 39.2 79 0.7 33.3 0
07:18 1034 30.53 863 25.48 3.8 38.8 80 0.6 33.1 0
07:19 1034 30.53 863 25.48 3.5 38.3 81 0.5 32.9 0
07:20 1034 30.53 863 25.48 3.3 37.9 82 0.5 33 0
07:21 1034 30.53 863 25.48 3.2 37.7 83 0.6 33.2 0
07:22 1034 30.53 863 25.48 3.2 37.7 84 0.7 33.3 0
07:23 1034 30.53 863 25.48 3.2 37.8 84 0.7 33.3 0
07:24 1034 30.53 863 25.48 3.3 38 84 0.8 33.4 0
07:25 1034 30.53 863 25.48 3.4 38 83 0.7 33.3 0
07:26 1034 30.53 863 25.48 3.4 38.2 83 0.8 33.4 0
07:27 1034 30.53 863 25.48 3.5 38.3 83 0.8 33.5 0
07:28 1034 30.53 863 25.48 3.6 38.5 83 0.9 33.6 0
07:29 1034 30.53 863 25.48 3.7 38.7 82 0.9 33.7 0
07:30 1034 30.53 863 25.48 3.8 38.8 81 0.8 33.5 0
07:31 1034 30.53 863 25.48 3.7 38.7 81 0.8 33.5 0
07:32 1034 30.53 863 25.48 3.5 38.4 82 0.7 33.3 0
07:33 1034 30.53 863 25.48 3.5 38.2 82 0.7 33.3 0
07:34 1034 30.53 863 25.48 3.4 38 82 0.6 33.1 0
07:35 1034 30.53 863 25.48 3.3 38 83 0.6 33.1 0
07:36 1034 30.53 863 25.48 3.3 37.9 83 0.6 33.1 0
07:37 1034 30.53 863 25.48 3.3 37.9 82 0.5 33 0
07:38 1034 30.53 863 25.48 3.2 37.8 83 0.5 32.9 0
07:39 1034 30.53 863 25.48 3.2 37.8 83 0.5 32.9 0
07:40 1034 30.53 863 25.48 3.3 37.9 83 0.6 33.1 0
07:41 1034 30.53 863 25.48 3.3 37.9 82 0.6 33.1 0
07:42 1034 30.53 863 25.48 3.3 38 83 0.7 33.2 0
07:43 1034 30.53 863 25.48 3.4 38.1 82 0.6 33.1 0
07:44 1034 30.53 863 25.48 3.5 38.2 82 0.6 33.1 0
07:45 1034 30.53 863 25.48 3.5 38.3 81 0.6 33.1 0
07:46 1034 30.53 863 25.48 3.5 38.3 82 0.6 33.1 0
07:47 1034 30.53 863 25.48 3.5 38.3 82 0.8 33.4 0
07:48 1034 30.53 863 25.48 3.6 38.5 82 0.9 33.6 0
07:49 1034 30.53 863 25.48 3.7 38.6 82 0.8 33.5 0
07:50 1034 30.53 863 25.48 3.8 38.8 81 0.9 33.6 0
07:51 1034 30.53 863 25.48 3.9 39 81 0.9 33.7 0
07:52 1034 30.53 863 25.48 4 39.2 81 1 33.8 0
07:53 1034 30.53 863 25.48 4 39.2 81 1 33.7 0
07:54 1034 30.53 863 25.48 3.8 38.9 81 0.9 33.6 0
07:55 1034 30.53 863 25.48 3.8 38.8 82 0.9 33.6 0
07:56 1034 30.53 863 25.48 3.6 38.6 82 0.9 33.5 0
07:57 1034 30.53 863 25.48 3.5 38.4 83 0.9 33.5 0
07:58 1034 30.53 863 25.48 3.4 38.2 83 0.9 33.6 0
07:59 1034 30.53 863 25.48 3.4 38.1 84 0.9 33.6 0
08:00 1034 30.53 863 25.48 3.4 38 84 0.9 33.6 0
08:01 1034 30.53 863 25.48 3.3 38 84 0.9 33.6 0
08:02 1034 30.53 863 25.48 3.3 37.9 84 0.8 33.5 0
08:03 1034 30.53 863 25.48 3.2 37.7 84 0.8 33.4 0
08:04 1034 30.53 863 25.48 3.1 37.5 85 0.8 33.4 0
08:05 1034 30.53 863 25.48 3 37.4 85 0.8 33.5 0
08:06 1034 30.53 863 25.48 3 37.4 85 0.8 33.4 0
08:07 1034 30.53 863 25.48 3 37.3 85 0.8 33.4 0
08:08 1034 30.53 863 25.48 2.9 37.2 86 0.7 33.3 0
08:09 1034 30.53 863 25.48 2.8 37.1 86 0.8 33.4 0
08:10 1034 30.53 863 25.48 2.8 37.1 86 0.8 33.4 0
08:11 1034 30.53 863 25.48 2.9 37.1 87 0.8 33.5 0
08:12 1034 30.53 863 25.48 2.9 37.3 86 0.9 33.6 0
08:13 1034 30.53 863 25.48 3 37.5 86 1 33.8 0
08:14 1034 30.53 863 25.48 3.1 37.6 86 1 33.8 0
08:15 1034 30.53 863 25.48 3.2 37.7 86 1 33.8 0
08:16 1034 30.53 863 25.48 3.1 37.7 86 1 33.8 0
08:17 1034 30.53 863 25.48 3.2 37.7 86 1.1 33.9 0
08:18 1034 30.53 863 25.48 3.2 37.8 86 1.1 34 0
08:19 1034 30.53 863 25.48 3.2 37.8 87 1.2 34.1 0
08:20 1034 30.53 863 25.48 3.3 37.9 86 1.2 34.2 0
08:21 1034 30.53 863 25.48 3.4 38.1 86 1.2 34.2 0
08:22 1034 30.53 863 25.48 3.5 38.3 86 1.3 34.3 0
08:23 1034 30.53 863 25.48 3.6 38.5 85 1.4 34.5 0
08:24 1034 30.53 863 25.48 3.7 38.6 85 1.4 34.6 0
08:25 1034 30.53 863 25.48 3.8 38.8 85 1.5 34.7 0
08:26 1034 30.53 863 25.48 3.9 38.9 85 1.5 34.7 0
08:27 1034 30.53 863 25.48 3.9 39.1 84 1.5 34.6 0
08:28 1034 30.53 863 25.48 4 39.3 84 1.5 34.7 0
08:29 1034 30.53 863 25.48 4.1 39.4 83 1.5 34.7 0
08:30 1034 30.53 863 25.48 4.1 39.4 83 1.4 34.6 0
08:31 1034 30.53 863 25.48 4.1 39.3 82 1.3 34.4 0
08:32 1034 30.53 863 25.48 4 39.3 82 1.3 34.3 0
08:33 1034 30.53 863 25.48 4 39.2 82 1.3 34.3 0
08:34 1034 30.53 863 25.48 4 39.3 82 1.3 34.3 0
08:35 1034 30.53 863 25.48 4.1 39.3 82 1.3 34.3 0
08:36 1034 30.53 863 25.48 4.2 39.6 81 1.3 34.4 0
08:37 1034 30.53 863 25.48 4.3 39.7 81 1.3 34.3 0
08:38 1034 30.53 863 25.48 4.3 39.7 81 1.3 34.4 0
08:39 1034 30.53 863 25.48 4.3 39.8 81 1.4 34.5 0
08:40 1034 30.53 863 25.48 4.3 39.8 81 1.4 34.5 0
08:41 1034 30.53 863 25.48 4.4 40 81 1.4 34.5 0
08:42 1034 30.53 863 25.48 4.5 40.1 81 1.5 34.7 0
08:43 1034 30.53 863 25.48 4.6 40.2 81 1.6 34.8 0
08:44 1034 30.53 863 25.48 4.7 40.4 80 1.6 34.9 0
08:45 1034 30.53 863 25.48 4.8 40.7 80 1.7 35.1 0
08:46 1034 30.53 863 25.48 5.1 41.2 78 1.6 34.9 0
08:47 1034 30.53 863 25.48 5.3 41.5 78 1.7 35.1 0
08:48 1034 30.53 863 25.48 5.4 41.7 77 1.7 35.1 0
08:49 1034 30.53 863 25.48 5.4 41.6 78 1.8 35.2 0
08:50 1034 30.53 863 25.48 5.3 41.6 78 1.8 35.2 0
08:51 1034 30.53 863 25.48 5.4 41.7 78 1.8 35.3 0
08:52 1034 30.53 863 25.48 5.5 41.9 78 2 35.6 0
08:53 1034 30.53 864 25.51 5.6 42.1 78 2.2 35.9 0
08:54 1034 30.53 864 25.51 5.8 42.4 79 2.4 36.3 0
08:55 1034 30.53 864 25.51 6 42.7 78 2.4 36.4 0
08:56 1034 30.53 864 25.51 6.2 43.2 77 2.5 36.4 0
08:57 1034 30.53 864 25.51 6.5 43.7 75 2.5 36.5 0
08:58 1034 30.53 864 25.51 6.8 44.3 74 2.6 36.7 0
08:59 1034 30.53 864 25.51 7.2 44.9 74 2.8 37 0
09:00 1034 30.53 864 25.51 7.4 45.4 70 2.4 36.3 0
09:01 1034 30.53 864 25.51 7.7 45.8 72 2.9 37.2 0
09:02 1034 30.53 864 25.51 7.9 46.2 70 2.8 37 0
09:03 1034 30.53 864 25.51 8.1 46.5 69 2.8 37 0
09:04 1034 30.53 864 25.51 8.2 46.7 69 2.9 37.1 0
09:05 1035 30.56 864 25.51 8.3 47 68 2.8 37 0
09:06 1034 30.53 864 25.51 8.5 47.3 69 3.1 37.5 0
09:07 1034 30.53 864 25.51 8.6 47.6 66 2.7 36.9 0
09:08 1034 30.53 864 25.51 8.8 47.9 66 3 37.3 0
09:09 1034 30.53 864 25.51 9 48.1 66 3 37.5 0
09:10 1034 30.53 864 25.51 9.1 48.3 65 2.8 37.1 0
09:11 1034 30.53 864 25.51 9.1 48.5 65 2.8 37.1 0
09:12 1035 30.56 864 25.51 9.2 48.6 64 2.9 37.2 0
09:13 1035 30.56 864 25.51 9.3 48.7 65 3.1 37.6 0
09:14 1035 30.56 864 25.51 9.4 48.8 64 2.9 37.1 0
09:15 1035 30.56 864 25.51 9.4 49 64 3 37.3 0
09:16 1035 30.56 864 25.51 9.4 49 65 3.2 37.7 0
09:17 1035 30.56 864 25.51 9.5 49.2 65 3.2 37.8 0
09:18 1035 30.56 864 25.51 9.7 49.4 65 3.4 38.1 0
09:19 1035 30.56 864 25.51 9.8 49.6 62 2.8 37.1 0
09:20 1035 30.56 864 25.51 9.8 49.6 65 3.5 38.2 0
09:21 1035 30.56 864 25.51 9.8 49.7 64 3.5 38.2 0
09:22 1035 30.56 864 25.51 9.9 49.8 66 3.9 39 0
09:23 1035 30.56 864 25.51 10 49.9 64 3.6 38.5 0
09:24 1035 30.56 864 25.51 9.9 49.9 64 3.6 38.4 0
09:25 1035 30.56 864 25.51 9.9 49.9 64 3.4 38.2 0
09:26 1035 30.56 864 25.51 9.9 49.8 64 3.4 38.2 0
09:27 1035 30.56 864 25.51 9.9 49.7 66 3.8 38.8 0
09:28 1035 30.56 864 25.51 9.9 49.9 66 3.8 38.9 0
09:29 1035 30.56 864 25.51 10 50 67 4.2 39.6 0
09:30 1035 30.56 864 25.51 10.1 50.1 67 4.2 39.6 0
09:31 1035 30.56 864 25.51 10.2 50.3 67 4.3 39.8 0
09:32 1035 30.56 864 25.51 10.3 50.6 67 4.5 40.1 0
09:33 1035 30.56 864 25.51 10.4 50.7 66 4.4 40 0
09:34 1035 30.56 864 25.51 10.4 50.7 66 4.3 39.7 0
09:35 1035 30.56 864 25.51 10.3 50.6 66 4.4 39.9 0
09:36 1035 30.56 864 25.51 10.3 50.6 66 4.4 39.8 0
09:37 1035 30.56 864 25.51 10.3 50.6 66 4.3 39.7 0
09:38 1035 30.56 864 25.51 10.4 50.7 66 4.4 39.8 0
09:39 1035 30.56 864 25.51 10.5 50.9 62 3.7 38.6 0
09:40 1035 30.56 864 25.51 10.6 51 62 3.7 38.6 0
09:41 1035 30.56 864 25.51 10.5 50.9 61 3.4 38.1 0
09:42 1035 30.56 864 25.51 10.5 51 61 3.3 38 0
09:43 1035 30.56 864 25.51 10.5 50.9 58 2.8 37 0
09:44 1035 30.56 864 25.51 10.5 51 58 2.7 36.9 0
09:45 1035 30.56 864 25.51 10.5 50.8 56 2.2 36 0
09:46 1035 30.56 864 25.51 10.5 50.9 56 2.2 35.9 0
09:47 1035 30.56 864 25.51 10.4 50.8 56 2.1 35.8 0
09:48 1035 30.56 864 25.51 10.4 50.7 57 2.3 36.1 0
09:49 1035 30.56 864 25.51 10.4 50.7 58 2.5 36.5 0
09:50 1035 30.56 864 25.51 10.3 50.6 60 2.9 37.1 0
09:51 1035 30.56 864 25.51 10.3 50.5 60 3 37.4 0
09:52 1035 30.56 864 25.51 10.3 50.6 60 3 37.4 0
09:53 1035 30.56 864 25.51 10.4 50.6 58 2.5 36.5 0
09:54 1035 30.56 864 25.51 10.4 50.8 57 2.3 36.2 0
09:55 1035 30.56 864 25.51 10.5 50.8 56 2 35.7 0
09:56 1035 30.56 864 25.51 10.5 50.9 57 2.3 36.1 0
09:57 1035 30.56 864 25.51 10.6 51 55 2 35.6 0
09:58 1035 30.56 864 25.51 10.6 51 56 2.3 36.1 0
09:59 1035 30.56 864 25.51 10.6 51 56 2.3 36.2 0
10:00 1035 30.56 864 25.51 10.6 51 55 2.1 35.7 0
10:01 1035 30.56 864 25.51 10.6 51 57 2.4 36.2 0
10:02 1035 30.56 864 25.51 10.6 51 57 2.4 36.2 0
10:03 1035 30.56 864 25.51 10.6 51.1 58 2.8 37 0
10:04 1035 30.56 864 25.51 10.6 51.2 59 3 37.4 0
10:05 1035 30.56 864 25.51 10.7 51.2 59 3 37.4 0
10:06 1035 30.56 864 25.51 10.8 51.4 58 2.8 37.1 0
10:07 1035 30.56 864 25.51 10.8 51.5 56 2.6 36.6 0
10:08 1035 30.56 864 25.51 10.9 51.6 57 2.9 37.2 0
10:09 1035 30.56 864 25.51 11 51.9 58 3.1 37.6 0
10:10 1035 30.56 864 25.51 11 51.8 58 3 37.5 0
10:11 1035 30.56 864 25.51 10.9 51.5 57 2.8 37 0
10:12 1035 30.56 864 25.51 10.8 51.5 56 2.5 36.4 0
10:13 1035 30.56 864 25.51 10.9 51.5 54 2.1 35.8 0
10:14 1035 30.56 864 25.51 11 51.7 53 1.7 35.1 0
10:15 1035 30.56 864 25.51 11.1 51.9 57 3 37.4 0
10:16 1035 30.56 864 25.51 11.1 52 57 3.1 37.5 0
10:17 1035 30.56 864 25.51 11.2 52.1 57 3 37.3 0
10:18 1035 30.56 864 25.51 11.2 52.2 54 2.2 36 0
10:19 1035 30.56 864 25.51 11.2 52.1 56 2.9 37.2 0
10:20 1035 30.56 864 25.51 11.2 52.1 54 2.4 36.3 0
10:21 1035 30.56 864 25.51 11.2 52.1 56 2.9 37.1 0
10:22 1035 30.56 864 25.51 11.2 52.1 58 3.1 37.6 0
10:23 1035 30.56 864 25.51 11.2 52.1 56 2.7 36.9 0
10:24 1035 30.56 864 25.51 11.2 52.2 56 2.7 36.9 0
10:25 1035 30.56 864 25.51 11.3 52.3 55 2.6 36.6 0
10:26 1035 30.56 864 25.51 11.3 52.3 57 3.2 37.7 0
10:27 1035 30.56 864 25.51 11.4 52.6 55 2.7 36.9 0
10:28 1035 30.56 864 25.51 11.5 52.6 54 2.6 36.8 0
10:29 1035 30.56 864 25.51 11.6 52.8 53 2.4 36.3 0
10:30 1035 30.56 864 25.51 11.7 53 54 2.6 36.7 0
10:31 1035 30.56 864 25.51 11.8 53.2 53 2.6 36.7 0
10:32 1035 30.56 864 25.51 11.9 53.4 53 2.7 36.8 0
10:33 1035 30.56 864 25.51 11.9 53.4 52 2.4 36.4 0
10:34 1035 30.56 864 25.51 11.9 53.4 52 2.4 36.4 0
10:35 1035 30.56 864 25.51 11.9 53.4 54 2.9 37.2 0
10:36 1035 30.56 864 25.51 11.9 53.4 54 3 37.3 0
10:37 1035 30.56 864 25.51 11.9 53.5 55 3.2 37.8 0
10:38 1035 30.56 864 25.51 11.9 53.4 53 2.8 37 0
10:39 1035 30.56 864 25.51 11.9 53.5 52 2.4 36.4 0
10:40 1035 30.56 864 25.51 12 53.6 51 2.2 36 0
10:41 1035 30.56 864 25.51 12 53.7 55 3.2 37.8 0
10:42 1035 30.56 864 25.51 12.1 53.8 54 3.2 37.8 0
10:43 1035 30.56 864 25.51 12.2 53.9 55 3.4 38.2 0
10:44 1035 30.56 864 25.51 12.3 54.1 51 2.6 36.7 0
10:45 1035 30.56 864 25.51 12.3 54.1 53 3 37.4 0
10:46 1035 30.56 864 25.51 12.3 54.1 55 3.5 38.4 0
10:47 1035 30.56 864 25.51 12.4 54.3 52 2.7 36.9 0
10:48 1035 30.56 864 25.51 12.4 54.4 49 2.1 35.7 0
10:49 1035 30.56 864 25.51 12.4 54.4 53 3.1 37.6 0
10:50 1035 30.56 864 25.51 12.5 54.6 53 3.4 38 0
10:51 1035 30.56 864 25.51 12.6 54.8 51 2.9 37.2 0
10:52 1035 30.56 864 25.51 12.7 54.8 53 3.3 37.9 0
10:53 1035 30.56 864 25.51 12.8 55 53 3.4 38.2 0
10:54 1035 30.56 864 25.51 12.8 55 50 2.6 36.7 0
10:55 1035 30.56 864 25.51 12.8 55.1 51 3.1 37.5 0
10:56 1035 30.56 864 25.51 12.9 55.1 49 2.6 36.7 0
10:57 1035 30.56 864 25.51 12.9 55.2 49 2.7 36.8 0
10:58 1035 30.56 864 25.51 13.1 55.5 51 3.1 37.6 0
10:59 1035 30.56 864 25.51 13.1 55.6 47 2 35.6 0
11:00 1035 30.56 864 25.51 13.2 55.7 49 2.7 36.9 0
11:01 1035 30.56 864 25.51 13.3 55.9 46 2 35.6 0
11:02 1035 30.56 864 25.51 13.3 56 49 3 37.4 0
11:03 1035 30.56 864 25.51 13.5 56.2 48 2.7 36.9 0
11:04 1035 30.56 864 25.51 13.6 56.5 49 3.1 37.6 0
11:05 1035 30.56 864 25.51 13.7 56.7 47 2.6 36.7 0
11:06 1035 30.56 864 25.51 13.7 56.7 44 1.9 35.5 0
11:07 1035 30.56 864 25.51 13.7 56.7 46 2.5 36.5 0
11:08 1035 30.56 864 25.51 13.8 56.8 46 2.3 36.2 0
11:09 1035 30.56 864 25.51 13.9 57 48 3.2 37.7 0
11:10 1035 30.56 864 25.51 14.1 57.4 45 2.5 36.6 0
11:11 1035 30.56 864 25.51 14.1 57.4 46 2.7 36.8 0
11:12 1035 30.56 864 25.51 14.2 57.5 43 1.8 35.3 0
11:13 1035 30.56 864 25.51 14.3 57.7 45 2.7 36.9 0
11:14 1035 30.56 864 25.51 14.3 57.7 42 1.6 34.8 0
11:15 1035 30.56 864 25.51 14.2 57.6 44 2.3 36.1 0
11:16 1035 30.56 864 25.51 14.1 57.4 45 2.6 36.7 0
11:17 1035 30.56 864 25.51 14.1 57.3 45 2.4 36.3 0
11:18 1035 30.56 864 25.51 14.1 57.3 48 3.3 38 0
11:19 1035 30.56 864 25.51 14 57.3 47 3 37.4 0
11:20 1035 30.56 864 25.51 14.1 57.3 46 2.6 36.7 0
11:21 1035 30.56 864 25.51 14.2 57.5 45 2.4 36.3 0
11:22 1035 30.56 864 25.51 14.2 57.6 46 2.7 36.9 0
11:23 1035 30.56 864 25.51 14.3 57.8 45 2.6 36.6 0
11:24 1035 30.56 864 25.51 14.4 57.9 45 2.5 36.6 0
11:25 1035 30.56 864 25.51 14.5 58.1 46 3.1 37.5 0
11:26 1035 30.56 864 25.51 14.7 58.4 43 2.3 36.2 0
11:27 1035 30.56 864 25.51 14.7 58.5 44 2.6 36.7 0
11:28 1035 30.56 864 25.51 14.7 58.5 42 2.2 35.9 0
11:29 1035 30.56 864 25.51 14.8 58.7 43 2.6 36.6 0
11:30 1035 30.56 864 25.51 15 58.9 41 1.9 35.5 0
11:31 1035 30.56 864 25.51 15.1 59.1 43 2.5 36.6 0
11:32 1035 30.56 864 25.51 15.1 59.1 42 2.2 36 0
11:33 1035 30.56 864 25.51 15.2 59.3 44 3.1 37.5 0
11:34 1035 30.56 864 25.51 15.2 59.4 44 3.1 37.5 0
11:35 1035 30.56 864 25.51 15.2 59.4 40 2 35.5 0
11:36 1035 30.56 864 25.51 15.2 59.4 41 2.1 35.8 0
11:37 1035 30.56 864 25.51 15.2 59.4 39 1.6 34.9 0
11:38 1035 30.56 864 25.51 15.3 59.5 40 1.7 35 0
11:39 1035 30.56 864 25.51 15.4 59.6 41 2.3 36.2 0
11:40 1035 30.56 864 25.51 15.5 59.8 41 2.5 36.5 0
11:41 1035 30.56 864 25.51 15.6 60 40 2 35.7 0
11:42 1035 30.56 864 25.51 15.7 60.2 38 1.4 34.5 0
11:43 1035 30.56 864 25.51 15.8 60.4 38 1.4 34.6 0
11:44 1035 30.56 864 25.51 15.8 60.4 39 1.9 35.4 0
11:45 1035 30.56 864 25.51 15.8 60.5 40 2.5 36.5 0
11:46 1035 30.56 864 25.51 16 60.7 39 2.2 36 0
11:47 1035 30.56 864 25.51 16 60.8 36 0.9 33.7 0
11:48 1035 30.56 864 25.51 16 60.7 40 2.3 36.2 0
11:49 1035 30.56 864 25.51 16.1 60.9 40 2.5 36.5 0
11:50 1035 30.56 864 25.51 16.2 61.1 36 1.3 34.3 0
11:51 1035 30.56 864 25.51 16.1 60.9 34 0.2 32.3 0
11:52 1035 30.56 864 25.51 16.1 60.9 37 1.4 34.6 0
11:53 1035 30.56 864 25.51 16.1 61 36 1.3 34.3 0
11:54 1035 30.56 864 25.51 16.2 61.1 39 2.3 36.2 0
11:55 1035 30.56 864 25.51 16.3 61.4 36 1.4 34.6 0
11:56 1035 30.56 864 25.51 16.4 61.4 36 1.4 34.5 0
11:57 1035 30.56 864 25.51 16.3 61.4 39 2.4 36.3 0
11:58 1035 30.56 864 25.51 16.3 61.4 37 1.6 34.8 0
11:59 1035 30.56 864 25.51 16.3 61.3 38 2 35.6 0
12:00 1035 30.56 864 25.51 16.2 61.2 37 1.8 35.2 0
12:01 1035 30.56 864 25.51 16.3 61.3 38 2.2 36 0
12:02 1035 30.56 864 25.51 16.3 61.4 38 2.1 35.8 0
12:03 1035 30.56 864 25.51 16.3 61.3 37 1.6 34.8 0
12:04 1035 30.56 864 25.51 16.3 61.3 37 1.5 34.7 0
12:05 1035 30.56 864 25.51 16.3 61.3 35 0.9 33.6 0
12:06 1035 30.56 864 25.51 16.3 61.3 40 2.7 36.9 0
12:07 1035 30.56 864 25.51 16.4 61.5 39 2.3 36.2 0
12:08 1035 30.56 864 25.51 16.5 61.7 38 2.3 36.1 0
12:09 1035 30.56 864 25.51 16.6 61.9 36 1.5 34.7 0
12:10 1035 30.56 864 25.51 16.7 62 34 1 33.7 0
12:11 1035 30.56 864 25.51 16.7 62 35 1.2 34.2 0
12:12 1035 30.56 864 25.51 16.7 62 37 2 35.6 0
12:13 1035 30.56 864 25.51 16.7 62.1 34 1 33.8 0
12:14 1035 30.56 864 25.51 16.8 62.2 33 0.6 33.1 0
12:15 1035 30.56 864 25.51 16.7 62.1 39 2.6 36.7 0
12:16 1035 30.56 864 25.51 16.7 62.1 33 0.4 32.8 0
12:17 1035 30.56 864 25.51 16.8 62.2 33 0.5 33 0
12:18 1035 30.56 864 25.51 16.8 62.3 33 0.5 32.8 0
12:19 1035 30.56 864 25.51 16.9 62.4 35 1.5 34.8 0
12:20 1035 30.56 864 25.51 17 62.5 31 -0.1 31.8 0
12:21 1035 30.56 864 25.51 16.9 62.4 34 1 33.8 0
12:22 1035 30.56 864 25.51 16.9 62.4 33 0.6 33.2 0
12:23 1035 30.56 864 25.51 16.9 62.5 32 0.1 32.2 0
12:24 1035 30.56 864 25.51 16.9 62.4 31 -0.2 31.7 0
12:25 1035 30.56 864 25.51 17 62.5 29 -1 30.3 0
12:26 1035 30.56 864 25.51 17.1 62.8 33 1 33.7 0
12:27 1035 30.56 864 25.51 17.3 63.1 33 1.2 34.1 0
12:28 1035 30.56 864 25.51 17.4 63.4 31 0 32 0
12:29 1035 30.56 864 25.51 17.4 63.2 30 -0.4 31.2 0
12:30 1035 30.56 864 25.51 17.3 63.1 31 0.1 32.3 0
12:31 1035 30.56 864 25.51 17.2 63 35 1.9 35.5 0
12:32 1035 30.56 864 25.51 17.3 63.1 31 0 32 0
12:33 1035 30.56 864 25.51 17.2 63 32 0.5 32.9 0
12:34 1035 30.56 864 25.51 17.3 63.2 33 0.9 33.6 0
12:35 1035 30.56 864 25.51 17.4 63.4 32 0.6 33 0
12:36 1035 30.56 864 25.51 17.4 63.4 32 0.7 33.3 0
12:37 1035 30.56 864 25.51 17.4 63.4 32 0.5 33 0
12:38 1035 30.56 864 25.51 17.4 63.4 33 1 33.7 0
12:39 1035 30.56 864 25.51 17.5 63.4 31 0.1 32.2 0
12:40 1035 30.56 864 25.51 17.4 63.4 31 0.4 32.8 0
12:41 1035 30.56 864 25.51 17.5 63.5 31 0.5 32.8 0
12:42 1035 30.56 864 25.51 17.6 63.6 30 0.1 32.3 0
12:43 1035 30.56 864 25.51 17.6 63.7 33 1.3 34.3 0
12:44 1035 30.56 864 25.51 17.9 64.2 33 1.4 34.5 0
12:45 1035 30.56 864 25.51 18.2 64.8 30 0.6 33 0
12:46 1035 30.56 864 25.51 18.4 65.1 29 0.2 32.3 0
12:47 1035 30.56 864 25.51 18.3 65 28 -0.5 31.2 0
12:48 1035 30.56 864 25.51 18.2 64.7 28 -0.4 31.4 0
12:49 1035 30.56 864 25.51 18.1 64.5 31 0.7 33.3 0
12:50 1035 30.56 864 25.51 18 64.3 30 0.5 32.8 0
12:51 1035 30.56 864 25.51 17.9 64.2 30 -0 32 0
12:52 1035 30.56 864 25.51 17.9 64.1 31 0.6 33.1 0
12:53 1035 30.56 864 25.51 17.8 64.1 33 1.6 35 0
12:54 1035 30.56 864 25.51 17.9 64.2 31 0.7 33.3 0
12:55 1035 30.56 864 25.51 17.9 64.3 32 1 33.8 0
12:56 1035 30.56 864 25.51 17.9 64.2 30 0.4 32.8 0
12:57 1034 30.53 864 25.51 18 64.3 29 -0.2 31.7 0
12:58 1034 30.53 864 25.51 18 64.4 30 0.4 32.6 0
12:59 1034 30.53 864 25.51 18 64.4 31 1 33.7 0
13:00 1034 30.53 864 25.51 18 64.3 30 0.1 32.1 0
13:01 1034 30.53 864 25.51 17.9 64.3 31 0.8 33.4 0
13:02 1034 30.53 864 25.51 18 64.4 34 2 35.6 0
13:03 1034 30.53 864 25.51 18.1 64.5 33 1.9 35.4 0
13:04 1034 30.53 864 25.51 18.1 64.6 31 1.1 33.9 0
13:05 1034 30.53 864 25.51 18.1 64.6 29 0.1 32.2 0
13:06 1034 30.53 864 25.51 18 64.4 30 0.4 32.7 0
13:07 1034 30.53 864 25.51 17.9 64.2 30 0.3 32.6 0
13:08 1034 30.53 864 25.51 18 64.4 32 1.3 34.4 0
13:09 1034 30.53 864 25.51 18.1 64.6 31 1 33.8 0
13:10 1034 30.53 864 25.51 18.1 64.7 31 0.9 33.5 0
13:11 1034 30.53 864 25.51 18.2 64.8 32 1.4 34.5 0
13:12 1034 30.53 864 25.51 18.2 64.8 30 0.5 33 0
13:13 1034 30.53 863 25.48 18.1 64.6 32 1.2 34.2 0
13:14 1034 30.53 863 25.48 18.2 64.7 30 0.7 33.2 0
13:15 1034 30.53 863 25.48 18.2 64.8 32 1.2 34.2 0
13:16 1034 30.53 863 25.48 18.3 64.9 31 1 33.7 0
13:17 1034 30.53 863 25.48 18.3 65 31 0.9 33.6 0
13:18 1034 30.53 863 25.48 18.4 65 30 0.6 33 0
13:19 1034 30.53 863 25.48 18.4 65 32 1.3 34.4 0
13:20 1034 30.53 863 25.48 18.4 65.1 36 3.4 38.1 0
13:21 1034 30.53 863 25.48 18.4 65.1 32 1.5 34.8 0
13:22 1034 30.53 863 25.48 18.3 65 34 2.4 36.3 0
13:23 1034 30.53 863 25.48 18.2 64.8 36 3.1 37.5 0
13:24 1034 30.53 863 25.48 18.1 64.7 32 1.3 34.3 0
13:25 1034 30.53 863 25.48 17.9 64.3 37 3.1 37.6 0
13:26 1034 30.53 863 25.48 17.9 64.2 33 1.6 35 0
13:27 1034 30.53 863 25.48 17.9 64.2 35 2.5 36.6 0
13:28 1034 30.53 863 25.48 18 64.4 35 2.4 36.4 0
13:29 1034 30.53 863 25.48 18.1 64.6 34 2 35.6 0
13:30 1034 30.53 863 25.48 18.1 64.5 34 2.3 36.2 0
13:31 1034 30.53 863 25.48 18 64.4 32 1.3 34.3 0
13:32 1034 30.53 863 25.48 17.9 64.3 35 2.5 36.5 0
13:33 1034 30.53 863 25.48 18 64.4 33 1.5 34.7 0
13:34 1034 30.53 863 25.48 18 64.4 34 2 35.5 0
13:35 1034 30.53 863 25.48 18 64.5 33 1.6 34.9 0
13:36 1034 30.53 863 25.48 18.2 64.7 39 4.2 39.5 0
13:37 1034 30.53 863 25.48 18.3 64.9 32 1.6 34.8 0
13:38 1034 30.53 863 25.48 18.2 64.8 33 1.7 35 0
13:39 1034 30.53 863 25.48 18.1 64.5 33 1.8 35.2 0
13:40 1034 30.53 863 25.48 18 64.3 37 3.2 37.7 0
13:41 1034 30.53 863 25.48 18 64.4 37 3 37.5 0
13:42 1034 30.53 863 25.48 18 64.5 36 2.7 36.8 0
13:43 1034 30.53 863 25.48 18 64.4 33 1.8 35.3 0
13:44 1034 30.53 863 25.48 18.1 64.7 36 2.8 37.1 0
13:45 1034 30.53 863 25.48 18.3 65 35 2.7 36.8 0
13:46 1034 30.53 863 25.48 18.4 65.1 33 1.8 35.3 0
13:47 1034 30.53 863 25.48 18.4 65.2 34 2.3 36.1 0
13:48 1034 30.53 863 25.48 18.5 65.2 32 1.7 35.1 0
13:49 1034 30.53 863 25.48 18.5 65.3 36 3.1 37.7 0
13:50 1034 30.53 863 25.48 18.5 65.4 30 0.9 33.6 0
13:51 1034 30.53 863 25.48 18.6 65.4 32 1.8 35.3 0
13:52 1034 30.53 863 25.48 18.7 65.6 32 1.7 35 0
13:53 1034 30.53 863 25.48 18.7 65.7 32 2 35.6 0
13:54 1034 30.53 863 25.48 18.7 65.7 31 1.2 34.2 0
13:55 1034 30.53 863 25.48 18.6 65.4 30 0.7 33.3 0
13:56 1034 30.53 863 25.48 18.5 65.4 28 -0.1 31.8 0
13:57 1034 30.53 863 25.48 18.5 65.3 28 -0.3 31.4 0
13:58 1034 30.53 863 25.48 18.5 65.2 29 0.3 32.6 0
13:59 1034 30.53 863 25.48 18.5 65.4 30 1 33.7 0
14:00 1034 30.53 863 25.48 18.5 65.4 29 0.2 32.4 0
14:01 1034 30.53 863 25.48 18.5 65.4 28 -0.3 31.4 0
14:02 1034 30.53 863 25.48 18.5 65.3 28 -0.2 31.6 0
14:03 1034 30.53 863 25.48 18.7 65.6 28 -0.1 31.9 0
14:04 1034 30.53 863 25.48 18.8 65.9 30 1 33.8 0
14:05 1034 30.53 863 25.48 19 66.2 29 0.7 33.2 0
14:06 1034 30.53 863 25.48 19.1 66.3 28 0.2 32.4 0
14:07 1034 30.53 863 25.48 19.1 66.3 28 0.4 32.6 0
14:08 1034 30.53 863 25.48 19.2 66.6 28 0.5 32.9 0
14:09 1034 30.53 863 25.48 19.2 66.6 28 0.6 33.1 0
14:10 1034 30.53 863 25.48 19.1 66.4 27 0 32 0
14:11 1034 30.53 863 25.48 19 66.2 28 0.1 32.1 0
14:12 1034 30.53 863 25.48 19.1 66.4 30 1.4 34.4 0
14:13 1034 30.53 863 25.48 19.2 66.6 29 0.9 33.6 0
14:14 1034 30.53 863 25.48 19.3 66.7 28 0.2 32.4 0
14:15 1034 30.53 863 25.48 19.3 66.8 29 1.1 34 0
14:16 1034 30.53 863 25.48 19.6 67.2 31 2 35.6 0
14:17 1034 30.53 863 25.48 19.7 67.4 29 1.5 34.6 0
14:18 1034 30.53 863 25.48 19.7 67.4 28 0.7 33.2 0
14:19 1034 30.53 863 25.48 19.6 67.3 29 1.2 34.1 0
14:20 1034 30.53 863 25.48 19.6 67.2 27 0.2 32.4 0
14:21 1034 30.53 863 25.48 19.4 67 28 0.7 33.3 0
14:22 1034 30.53 863 25.48 19.4 66.8 30 1.5 34.7 0
14:23 1034 30.53 863 25.48 19.4 66.9 26 -0.2 31.6 0
14:24 1034 30.53 863 25.48 19.2 66.6 25 -1.1 30 0
14:25 1034 30.53 863 25.48 19.2 66.5 27 0 32 0
14:26 1034 30.53 863 25.48 19.3 66.7 26 -0.8 30.5 0
14:27 1034 30.53 863 25.48 19.3 66.7 25 -1 30.3 0
14:28 1034 30.53 863 25.48 19.3 66.7 26 -0.4 31.3 0
14:29 1034 30.53 863 25.48 19.3 66.7 28 0.5 32.8 0
14:30 1034 30.53 863 25.48 19.4 66.9 26 -0.5 31.1 0
14:31 1034 30.53 863 25.48 19.4 66.9 28 0.7 33.3 0
14:32 1034 30.53 863 25.48 19.4 67 28 0.8 33.4 0
14:33 1033 30.5 863 25.48 19.4 67 29 1.3 34.3 0
14:34 1033 30.5 863 25.48 19.3 66.7 28 0.6 33.1 0
14:35 1033 30.5 863 25.48 19.3 66.7 28 0.5 32.8 0
14:36 1033 30.5 863 25.48 19.2 66.6 27 -0 31.9 0
14:37 1033 30.5 863 25.48 19.2 66.5 27 -0.2 31.7 0
14:38 1033 30.5 863 25.48 19.2 66.6 26 -0.5 31 0
14:39 1033 30.5 863 25.48 19.3 66.7 27 0.1 32.1 0
14:40 1033 30.5 863 25.48 19.3 66.7 26 -0.5 31.1 0
14:41 1033 30.5 863 25.48 19.4 66.9 28 0.4 32.7 0
14:42 1033 30.5 863 25.48 19.5 67 29 1.1 34 0
14:43 1033 30.5 863 25.48 19.6 67.2 27 0.2 32.3 0
14:44 1033 30.5 863 25.48 19.6 67.2 27 0.1 32.2 0
14:45 1033 30.5 863 25.48 19.5 67.2 29 1.4 34.4 0
14:46 1033 30.5 863 25.48 19.6 67.2 26 -0.5 31 0
14:47 1033 30.5 863 25.48 19.4 67 28 0.5 32.9 0
14:48 1033 30.5 863 25.48 19.4 67 29 1 33.7 0
14:49 1033 30.5 863 25.48 19.4 67 26 -0.5 31.2 0
14:50 1033 30.5 863 25.48 19.3 66.8 25 -1 30.2 0
14:51 1033 30.5 863 25.48 19.3 66.7 27 0.1 32.2 0
14:52 1033 30.5 863 25.48 19.3 66.7 26 -0.4 31.3 0
14:53 1033 30.5 863 25.48 19.2 66.6 28 0.5 33 0
14:54 1033 30.5 863 25.48 19.3 66.7 26 -0.4 31.3 0
14:55 1033 30.5 863 25.48 19.3 66.8 28 0.3 32.6 0
14:56 1033 30.5 862 25.45 19.4 66.8 27 0.3 32.5 0
14:57 1033 30.5 862 25.45 19.3 66.7 28 0.3 32.6 0
14:58 1033 30.5 862 25.45 19.2 66.5 28 0.4 32.8 0
14:59 1033 30.5 862 25.45 19.2 66.5 30 1.4 34.5 0
15:00 1033 30.5 862 25.45 19.2 66.6 24 -1.6 29.2 0
15:01 1033 30.5 862 25.45 19.2 66.5 26 -0.8 30.5 0
15:02 1033 30.5 862 25.45 19.1 66.5 26 -0.8 30.6 0
15:03 1033 30.5 862 25.45 19.1 66.4 29 0.8 33.4 0
15:04 1033 30.5 862 25.45 19.2 66.5 26 -0.9 30.4 0
15:05 1033 30.5 862 25.45 19.1 66.4 26 -0.5 31.1 0
15:06 1033 30.5 862 25.45 19.1 66.5 26 -0.9 30.4 0
15:07 1033 30.5 862 25.45 19.2 66.6 27 -0.2 31.6 0
15:08 1033 30.5 862 25.45 19.2 66.5 26 -0.7 30.8 0
15:09 1033 30.5 862 25.45 19.2 66.5 28 0.4 32.7 0
15:10 1033 30.5 862 25.45 19.2 66.5 28 0.6 33 0
15:11 1033 30.5 862 25.45 19.3 66.7 25 -0.9 30.5 0
15:12 1033 30.5 862 25.45 19.2 66.6 26 -0.4 31.3 0
15:13 1033 30.5 862 25.45 19.3 66.7 27 -0.3 31.5 0
15:14 1033 30.5 862 25.45 19.3 66.7 24 -1.4 29.4 0
15:15 1033 30.5 862 25.45 19.3 66.8 26 -0.4 31.3 0
15:16 1033 30.5 862 25.45 19.5 67 27 0.1 32.2 0
15:17 1033 30.5 862 25.45 19.4 67 26 -0.4 31.3 0
15:18 1033 30.5 862 25.45 19.3 66.8 25 -1.1 30.1 0
15:19 1033 30.5 862 25.45 19.3 66.7 25 -1 30.3 0
15:20 1033 30.5 862 25.45 19.2 66.6 24 -1.4 29.5 0
15:21 1033 30.5 862 25.45 19.3 66.7 24 -1.5 29.4 0
15:22 1033 30.5 862 25.45 19.3 66.7 24 -1.8 28.8 0
15:23 1033 30.5 862 25.45 19.3 66.7 26 -0.4 31.3 0
15:24 1033 30.5 862 25.45 19.3 66.7 25 -1.2 29.8 0
15:25 1033 30.5 862 25.45 19.3 66.8 24 -1.6 29.2 0
15:26 1033 30.5 862 25.45 19.3 66.7 27 -0.3 31.5 0
15:27 1033 30.5 862 25.45 19.3 66.7 27 0 32 0
15:28 1033 30.5 862 25.45 19.3 66.7 24 -1.7 29 0
15:29 1033 30.5 862 25.45 19.3 66.7 26 -0.4 31.3 0
15:30 1033 30.5 862 25.45 19.4 66.8 26 -0.6 31 0
15:31 1033 30.5 862 25.45 19.4 67 26 -0.6 31 0
15:32 1033 30.5 862 25.45 19.4 67 24 -1.7 29 0
15:33 1033 30.5 862 25.45 19.3 66.7 24 -1.6 29.1 0
15:34 1033 30.5 862 25.45 19.3 66.7 24 -1.9 28.7 0
15:35 1033 30.5 862 25.45 19.2 66.6 25 -1.2 29.8 0
15:36 1033 30.5 862 25.45 19.3 66.8 23 -1.9 28.6 0
15:37 1033 30.5 862 25.45 19.4 66.9 24 -1.5 29.4 0
15:38 1033 30.5 862 25.45 19.6 67.2 25 -0.9 30.3 0
15:39 1033 30.5 862 25.45 19.7 67.5 24 -1.3 29.6 0
15:40 1033 30.5 862 25.45 19.9 67.8 24 -1.2 29.8 0
15:41 1033 30.5 862 25.45 20 68.1 23 -1.3 29.6 0
15:42 1033 30.5 862 25.45 20.1 68.3 24 -1.1 30 0
15:43 1033 30.5 862 25.45 20 67.9 22 -2 28.3 0
15:44 1033 30.5 862 25.45 19.8 67.7 26 -0.2 31.7 0
15:45 1033 30.5 862 25.45 19.9 67.8 23 -1.9 28.6 0
15:46 1033 30.5 862 25.45 19.9 67.9 24 -1.3 29.7 0
15:47 1033 30.5 862 25.45 20.1 68.2 24 -1.1 30.1 0
15:48 1033 30.5 862 25.45 20.3 68.5 25 -0.3 31.5 0
15:49 1033 30.5 862 25.45 20.4 68.7 23 -1.1 30 0
15:50 1033 30.5 862 25.45 20.4 68.7 25 -0.2 31.6 0
15:51 1033 30.5 862 25.45 20.4 68.8 25 -0.1 31.8 0
15:52 1033 30.5 862 25.45 20.4 68.8 22 -1.6 29.1 0
15:53 1033 30.5 862 25.45 20.3 68.5 24 -0.6 30.9 0
15:54 1033 30.5 862 25.45 20.1 68.3 25 -0.6 30.9 0
15:55 1033 30.5 862 25.45 20.1 68.1 25 -0.3 31.4 0
15:56 1033 30.5 862 25.45 20 67.9 24 -1.3 29.7 0
15:57 1033 30.5 862 25.45 19.9 67.8 25 -0.8 30.5 0
15:58 1033 30.5 862 25.45 19.9 67.8 27 0.3 32.6 0
15:59 1033 30.5 862 25.45 19.8 67.7 25 -0.8 30.6 0
16:00 1033 30.5 862 25.45 19.8 67.6 26 -0.4 31.3 0
16:01 1033 30.5 862 25.45 19.7 67.4 28 1 33.7 0
16:02 1033 30.5 862 25.45 19.7 67.5 25 -0.8 30.5 0
16:03 1033 30.5 862 25.45 19.7 67.5 26 -0.3 31.5 0
16:04 1033 30.5 862 25.45 19.7 67.5 25 -0.9 30.3 0
16:05 1033 30.5 862 25.45 19.7 67.4 24 -1.2 29.9 0
16:06 1033 30.5 862 25.45 19.7 67.4 25 -1 30.2 0
16:07 1033 30.5 862 25.45 19.6 67.3 23 -1.8 28.8 0
16:08 1033 30.5 862 25.45 19.6 67.2 23 -1.9 28.7 0
16:09 1033 30.5 862 25.45 19.6 67.3 24 -1.4 29.4 0
16:10 1033 30.5 862 25.45 19.7 67.4 23 -1.8 28.8 0
16:11 1033 30.5 862 25.45 19.8 67.6 25 -0.7 30.8 0
16:12 1033 30.5 862 25.45 19.9 67.7 24 -1.1 30 0
16:13 1033 30.5 862 25.45 19.8 67.6 25 -0.7 30.8 0
16:14 1033 30.5 862 25.45 19.8 67.6 26 -0.2 31.7 0
16:15 1033 30.5 862 25.45 19.8 67.6 25 -0.9 30.4 0
16:16 1033 30.5 862 25.45 19.7 67.4 25 -0.5 31.1 0
16:17 1033 30.5 862 25.45 19.6 67.3 25 -0.8 30.6 0
16:18 1033 30.5 862 25.45 19.7 67.4 24 -1.6 29.1 0
16:19 1033 30.5 862 25.45 19.7 67.5 23 -1.9 28.6 0
16:20 1033 30.5 862 25.45 19.9 67.7 23 -1.7 28.9 0
16:21 1033 30.5 862 25.45 20.2 68.3 24 -0.7 30.8 0
16:22 1033 30.5 862 25.45 20.5 68.9 22 -1.7 28.9 0
16:23 1033 30.5 862 25.45 20.6 69 23 -1.2 29.8 0
16:24 1033 30.5 862 25.45 20.5 68.8 22 -1.8 28.8 0
16:25 1033 30.5 862 25.45 20.4 68.7 22 -1.6 29.1 0
16:26 1033 30.5 862 25.45 20.3 68.5 23 -1.5 29.3 0
16:27 1033 30.5 862 25.45 20.1 68.3 23 -1.5 29.3 0
16:28 1033 30.5 862 25.45 20.2 68.3 25 -0.5 31 0
16:29 1033 30.5 862 25.45 20.2 68.4 23 -1.6 29.1 0
16:30 1033 30.5 862 25.45 20.2 68.4 23 -1.2 29.8 0
16:31 1033 30.5 862 25.45 20.3 68.5 23 -1.4 29.5 0
16:32 1033 30.5 862 25.45 20.5 68.8 24 -0.4 31.3 0
16:33 1033 30.5 862 25.45 20.7 69.2 26 0.5 32.9 0
16:34 1033 30.5 862 25.45 20.7 69.3 26 0.9 33.6 0
16:35 1033 30.5 862 25.45 20.5 69 26 0.7 33.2 0
16:36 1033 30.5 862 25.45 20.3 68.6 26 0.5 32.9 0
16:37 1033 30.5 862 25.45 20.1 68.2 25 -0.6 30.9 0
16:38 1033 30.5 862 25.45 19.9 67.9 27 0.4 32.7 0
16:39 1033 30.5 862 25.45 19.8 67.6 25 -0.8 30.6 0
16:40 1033 30.5 862 25.45 19.6 67.3 27 0.3 32.6 0
16:41 1033 30.5 862 25.45 19.5 67.1 28 0.9 33.6 0
16:42 1033 30.5 862 25.45 19.5 67 27 0.1 32.2 0
16:43 1033 30.5 862 25.45 19.4 66.9 28 0.8 33.4 0
16:44 1033 30.5 862 25.45 19.4 67 25 -0.8 30.6 0
16:45 1033 30.5 862 25.45 19.5 67.1 27 -0 32 0
16:46 1033 30.5 862 25.45 19.5 67.2 24 -1.3 29.7 0
16:47 1033 30.5 862 25.45 19.6 67.3 25 -0.9 30.3 0
16:48 1033 30.5 862 25.45 19.7 67.5 24 -1.4 29.5 0
16:49 1033 30.5 862 25.45 19.8 67.7 25 -0.7 30.8 0
16:50 1033 30.5 862 25.45 19.8 67.6 27 0.5 32.9 0
16:51 1033 30.5 862 25.45 19.6 67.3 27 0.1 32.1 0
16:52 1033 30.5 862 25.45 19.4 66.9 29 0.8 33.5 0
16:53 1033 30.5 862 25.45 19.2 66.6 27 0 32 0
16:54 1033 30.5 862 25.45 19 66.3 28 0.3 32.6 0
16:55 1033 30.5 862 25.45 18.9 66.1 29 0.6 33.1 0
16:56 1033 30.5 862 25.45 18.9 65.9 30 1.1 34 0
16:57 1033 30.5 862 25.45 18.8 65.9 30 1 33.9 0
16:58 1033 30.5 862 25.45 18.8 65.9 29 0.5 33 0
16:59 1033 30.5 862 25.45 18.9 65.9 29 0.5 32.9 0
17:00 1033 30.5 862 25.45 18.9 66 30 1.1 33.9 0
17:01 1033 30.5 862 25.45 19 66.1 28 0.2 32.3 0
17:02 1033 30.5 862 25.45 19 66.2 29 0.8 33.4 0
17:03 1033 30.5 862 25.45 19.1 66.3 29 0.8 33.5 0
17:04 1033 30.5 862 25.45 19 66.3 28 0.1 32.2 0
17:05 1033 30.5 862 25.45 18.9 66.1 27 -0.5 31.1 0
17:06 1033 30.5 862 25.45 18.9 66 29 0.5 32.9 0
17:07 1033 30.5 862 25.45 18.9 66 29 0.7 33.3 0
17:08 1033 30.5 862 25.45 19 66.1 29 0.6 33.2 0
17:09 1033 30.5 862 25.45 19 66.2 29 0.9 33.7 0
17:10 1032 30.47 862 25.45 19 66.2 30 1.3 34.4 0
17:11 1033 30.5 862 25.45 19 66.2 29 0.7 33.2 0
17:12 1033 30.5 862 25.45 19 66.1 28 0.1 32.2 0
17:13 1032 30.47 862 25.45 18.9 66.1 28 0.3 32.5 0
17:14 1033 30.5 862 25.45 18.9 66.1 29 0.5 32.9 0
17:15 1033 30.5 862 25.45 18.9 66.1 31 1.4 34.4 0
17:16 1033 30.5 862 25.45 18.9 65.9 30 1.2 34.2 0
17:17 1032 30.47 862 25.45 18.8 65.8 31 1.4 34.6 0
17:18 1032 30.47 862 25.45 18.7 65.7 31 1.4 34.5 0
17:19 1032 30.47 862 25.45 18.6 65.4 31 1.4 34.6 0
17:20 1032 30.47 862 25.45 18.4 65.1 30 0.9 33.5 0
17:21 1032 30.47 862 25.45 18.3 64.9 32 1.4 34.5 0
17:22 1032 30.47 862 25.45 18.2 64.7 30 0.6 33 0
17:23 1032 30.47 862 25.45 18.2 64.7 31 0.7 33.2 0
17:24 1032 30.47 862 25.45 18.1 64.6 29 0.1 32.2 0
17:25 1032 30.47 862 25.45 18.1 64.5 30 0.3 32.5 0
17:26 1032 30.47 862 25.45 18.1 64.5 32 1.4 34.6 0
17:27 1032 30.47 862 25.45 18.1 64.5 32 1.4 34.5 0
17:28 1032 30.47 862 25.45 18 64.4 33 1.4 34.5 0
17:29 1032 30.47 862 25.45 17.9 64.2 33 1.6 34.9 0
17:30 1032 30.47 862 25.45 17.8 64.1 33 1.4 34.5 0
17:31 1032 30.47 862 25.45 17.8 64 31 0.6 33.1 0
17:32 1032 30.47 862 25.45 17.7 63.9 32 1.1 34 0
17:33 1032 30.47 862 25.45 17.7 63.9 33 1.2 34.2 0
17:34 1032 30.47 862 25.45 17.6 63.7 32 0.9 33.7 0
17:35 1032 30.47 862 25.45 17.6 63.7 32 1 33.8 0
17:36 1032 30.47 862 25.45 17.6 63.6 32 1 33.8 0
17:37 1032 30.47 861 25.43 17.5 63.5 32 0.8 33.4 0
17:38 1032 30.47 861 25.43 17.5 63.5 31 0.4 32.7 0
17:39 1032 30.47 861 25.43 17.5 63.5 31 0.4 32.7 0
17:40 1032 30.47 861 25.43 17.5 63.5 32 0.7 33.2 0
17:41 1032 30.47 861 25.43 17.6 63.6 32 0.7 33.3 0
17:42 1032 30.47 861 25.43 17.6 63.6 31 0.5 32.9 0
17:43 1032 30.47 861 25.43 17.6 63.6 30 0 32.1 0
17:44 1032 30.47 861 25.43 17.5 63.5 31 0.2 32.3 0
17:45 1032 30.47 861 25.43 17.5 63.5 31 0.3 32.6 0
17:46 1032 30.47 861 25.43 17.5 63.5 31 0.4 32.8 0
17:47 1032 30.47 861 25.43 17.5 63.5 33 1.3 34.4 0
17:48 1032 30.47 861 25.43 17.5 63.4 32 0.9 33.6 0
17:49 1032 30.47 861 25.43 17.4 63.2 31 0.1 32.2 0
17:50 1032 30.47 861 25.43 17.4 63.4 34 1.6 34.8 0
17:51 1032 30.47 861 25.43 17.4 63.4 35 1.9 35.4 0
17:52 1032 30.47 861 25.43 17.4 63.3 38 3 37.3 0
17:53 1032 30.47 861 25.43 17.3 63.2 36 2.2 36 0
17:54 1032 30.47 861 25.43 17.2 63 35 1.9 35.4 0
17:55 1032 30.47 861 25.43 17.1 62.8 34 1.1 33.9 0
17:56 1032 30.47 861 25.43 17 62.7 33 0.6 33.1 0
17:57 1032 30.47 861 25.43 17 62.6 35 1.5 34.7 0
17:58 1032 30.47 861 25.43 16.9 62.4 33 0.6 33.1 0
17:59 1032 30.47 861 25.43 16.8 62.2 33 0.6 33.2 0
18:00 1032 30.47 861 25.43 16.7 62 33 0.3 32.5 0
18:01 1032 30.47 861 25.43 16.6 61.9 33 0.4 32.8 0
18:02 1032 30.47 861 25.43 16.6 61.9 33 0.4 32.6 0
18:03 1032 30.47 861 25.43 16.5 61.6 34 0.6 33.1 0
18:04 1032 30.47 861 25.43 16.3 61.3 34 0.6 33.1 0
18:05 1032 30.47 861 25.43 16.2 61.2 34 0.5 33 0
18:06 1032 30.47 861 25.43 16.2 61.2 35 0.9 33.6 0
18:07 1032 30.47 861 25.43 16.1 60.9 36 1.2 34.2 0
18:08 1032 30.47 861 25.43 15.9 60.6 36 1.1 33.9 0
18:09 1032 30.47 861 25.43 15.7 60.3 37 1 33.8 0
18:10 1032 30.47 861 25.43 15.6 60.1 36 0.8 33.5 0
18:11 1032 30.47 861 25.43 15.5 59.9 37 1 33.8 0
18:12 1032 30.47 861 25.43 15.4 59.7 37 1 33.7 0
18:13 1032 30.47 861 25.43 15.3 59.6 37 0.7 33.2 0
18:14 1032 30.47 861 25.43 15.3 59.6 37 0.7 33.3 0
18:15 1032 30.47 861 25.43 15.2 59.3 40 1.7 35.1 0
18:16 1032 30.47 861 25.43 14.6 58.3 42 1.8 35.2 0
18:17 1032 30.47 861 25.43 13.9 57 45 2.3 36.1 0
18:18 1032 30.47 861 25.43 13 55.3 49 2.7 36.9 0
18:19 1032 30.47 861 25.43 12.1 53.8 54 3.1 37.7 0
18:20 1032 30.47 861 25.43 11.5 52.7 57 3.4 38.2 0
18:21 1032 30.47 861 25.43 11 51.8 60 3.7 38.6 0
18:22 1032 30.47 861 25.43 10.4 50.7 64 3.8 38.9 0
18:23 1032 30.47 861 25.43 9.9 49.8 66 3.8 38.9 0
18:24 1032 30.47 861 25.43 9.5 49.1 68 3.8 38.9 0
18:25 1032 30.47 861 25.43 9.3 48.7 69 3.9 39 0
18:26 1032 30.47 861 25.43 9 48.3 70 3.9 38.9 0
18:27 1032 30.47 861 25.43 8.8 47.9 70 3.6 38.5 0
18:28 1032 30.47 861 25.43 8.7 47.6 69 3.4 38.1 0
18:29 1032 30.47 861 25.43 8.6 47.4 69 3.3 38 0
18:30 1032 30.47 861 25.43 8.5 47.2 70 3.4 38.1 0
18:31 1032 30.47 861 25.43 8.2 46.7 71 3.3 37.9 0
18:32 1032 30.47 861 25.43 8 46.5 71 3.2 37.7 0
18:33 1032 30.47 861 25.43 7.8 46 72 3.1 37.5 0
18:34 1032 30.47 861 25.43 7.4 45.4 73 3 37.4 0
18:35 1032 30.47 861 25.43 7.1 44.8 75 3 37.4 0
18:36 1032 30.47 861 25.43 7.1 44.7 75 2.9 37.2 0
18:37 1032 30.47 861 25.43 7 44.7 75 2.9 37.1 0
18:38 1032 30.47 861 25.43 7 44.5 74 2.7 36.9 0
18:39 1032 30.47 861 25.43 6.9 44.4 74 2.6 36.7 0
18:40 1032 30.47 861 25.43 6.9 44.3 74 2.5 36.5 0
18:41 1032 30.47 861 25.43 6.8 44.2 73 2.4 36.3 0
18:42 1032 30.47 861 25.43 6.7 44.1 74 2.4 36.3 0
18:43 1032 30.47 861 25.43 6.7 44.1 74 2.4 36.3 0
18:44 1032 30.47 861 25.43 6.7 44.1 73 2.3 36.2 0
18:45 1032 30.47 861 25.43 6.7 44.1 74 2.4 36.2 0
18:46 1032 30.47 861 25.43 6.7 44 74 2.3 36.2 0
18:47 1032 30.47 861 25.43 6.6 43.9 74 2.3 36.1 0
18:48 1032 30.47 861 25.43 6.6 43.8 74 2.3 36.2 0
18:49 1032 30.47 861 25.43 6.5 43.7 74 2.2 36 0
18:50 1032 30.47 861 25.43 6.4 43.5 75 2.3 36.1 0
18:51 1032 30.47 861 25.43 6.3 43.3 75 2.2 35.9 0
18:52 1032 30.47 861 25.43 6.2 43.1 76 2.2 35.9 0
18:53 1032 30.47 861 25.43 6.1 43 76 2.1 35.9 0
18:54 1032 30.47 861 25.43 6 42.9 75 2 35.6 0
18:55 1032 30.47 861 25.43 6.2 43.1 75 2.1 35.7 0
18:56 1032 30.47 861 25.43 6.3 43.3 74 2 35.7 0
18:57 1032 30.47 861 25.43 6.4 43.5 74 2.1 35.8 0
18:58 1032 30.47 861 25.43 6.5 43.6 73 2.1 35.7 0
18:59 1032 30.47 861 25.43 6.4 43.5 74 2.1 35.7 0
19:00 1032 30.47 861 25.43 6.3 43.3 74 2.1 35.7 0
19:01 1032 30.47 861 25.43 6.2 43.1 75 2 35.6 0
19:02 1032 30.47 861 25.43 6.1 43 75 2 35.5 0
19:03 1032 30.47 861 25.43 6 42.9 75 1.9 35.5 0
19:04 1032 30.47 861 25.43 6 42.7 75 1.9 35.4 0
19:05 1032 30.47 861 25.43 6 42.7 75 1.9 35.5 0
19:06 1032 30.47 861 25.43 5.9 42.7 75 1.9 35.4 0
19:07 1032 30.47 861 25.43 6 42.7 75 1.8 35.3 0
19:08 1032 30.47 861 25.43 5.9 42.7 75 1.9 35.3 0
19:09 1032 30.47 861 25.43 5.9 42.5 75 1.8 35.3 0
19:10 1032 30.47 861 25.43 5.9 42.7 75 1.8 35.3 0
19:11 1032 30.47 861 25.43 5.9 42.7 75 1.8 35.3 0
19:12 1032 30.47 861 25.43 5.9 42.6 75 1.8 35.3 0
19:13 1032 30.47 861 25.43 5.8 42.5 75 1.8 35.3 0
19:14 1032 30.47 861 25.43 5.8 42.4 75 1.8 35.2 0
19:15 1032 30.47 861 25.43 5.9 42.6 75 1.8 35.2 0
19:16 1032 30.47 861 25.43 6 42.7 74 1.7 35.1 0
19:17 1032 30.47 861 25.43 5.8 42.5 74 1.6 34.9 0
19:18 1032 30.47 861 25.43 5.8 42.4 74 1.6 34.8 0
19:19 1032 30.47 861 25.43 5.8 42.4 75 1.6 34.9 0
19:20 1032 30.47 861 25.43 5.9 42.6 74 1.7 35 0
19:21 1032 30.47 861 25.43 6 42.7 74 1.7 35.1 0
19:22 1032 30.47 861 25.43 5.9 42.7 74 1.7 35.1 0
19:23 1032 30.47 861 25.43 5.9 42.7 75 1.9 35.4 0
19:24 1032 30.47 861 25.43 6 42.8 73 1.6 34.8 0
19:25 1032 30.47 861 25.43 6.2 43.2 71 1.4 34.5 0
19:26 1032 30.47 861 25.43 6.5 43.7 69 1.2 34.2 0
19:27 1032 30.47 861 25.43 6.9 44.3 67 1.2 34.1 0
19:28 1032 30.47 861 25.43 7.2 44.9 66 1.3 34.4 0
19:29 1032 30.47 861 25.43 7.2 44.9 66 1.4 34.4 0
19:30 1032 30.47 861 25.43 7.2 45 66 1.3 34.4 0
19:31 1032 30.47 861 25.43 7.1 44.8 66 1.3 34.3 0
19:32 1032 30.47 861 25.43 7.1 44.9 66 1.2 34.2 0
19:33 1032 30.47 861 25.43 7.2 44.9 65 1.2 34.1 0
19:34 1032 30.47 861 25.43 7.3 45.1 65 1.1 34.1 0
19:35 1032 30.47 861 25.43 7.4 45.2 65 1.1 34.1 0
19:36 1032 30.47 861 25.43 7.4 45.3 64 1.1 34 0
19:37 1032 30.47 861 25.43 7.4 45.3 64 1 33.8 0
19:38 1032 30.47 861 25.43 7.4 45.3 64 1 33.7 0
19:39 1032 30.47 861 25.43 7.3 45.2 64 0.9 33.6 0
19:40 1032 30.47 861 25.43 7.3 45.1 64 0.9 33.7 0
19:41 1032 30.47 861 25.43 7.3 45.1 64 1.1 33.9 0
19:42 1032 30.47 861 25.43 7.3 45.1 65 1.1 34 0
19:43 1032 30.47 861 25.43 7.4 45.3 64 1.1 33.9 0
19:44 1032 30.47 861 25.43 7.5 45.5 63 0.9 33.7 0
19:45 1032 30.47 861 25.43 7.7 45.9 63 1.1 34 0
19:46 1032 30.47 861 25.43 7.7 45.8 63 1.1 33.9 0
19:47 1032 30.47 861 25.43 7.6 45.6 63 1 33.8 0
19:48 1032 30.47 861 25.43 7.5 45.6 63 1 33.8 0
19:49 1032 30.47 861 25.43 7.5 45.4 63 1 33.7 0
19:50 1032 30.47 861 25.43 7.4 45.3 64 1 33.8 0
19:51 1032 30.47 861 25.43 7.3 45.2 64 1 33.8 0
19:52 1032 30.47 861 25.43 7.2 44.9 64 0.9 33.7 0
19:53 1032 30.47 861 25.43 7 44.7 65 0.9 33.7 0
19:54 1032 30.47 861 25.43 6.9 44.5 65 0.9 33.6 0
19:55 1032 30.47 861 25.43 7 44.5 65 0.8 33.5 0
19:56 1032 30.47 861 25.43 7 44.6 65 0.9 33.6 0
19:57 1032 30.47 861 25.43 6.9 44.5 65 0.9 33.6 0
19:58 1032 30.47 861 25.43 6.9 44.5 65 0.8 33.5 0
19:59 1032 30.47 861 25.43 7 44.5 65 0.9 33.6 0
20:00 1032 30.47 861 25.43 6.9 44.4 65 0.9 33.6 0
20:01 1032 30.47 861 25.43 6.9 44.3 66 0.9 33.6 0
20:02 1032 30.47 861 25.43 6.8 44.2 65 0.8 33.4 0
20:03 1032 30.47 861 25.43 6.9 44.4 64 0.7 33.2 0
20:04 1032 30.47 861 25.43 7.1 44.9 63 0.7 33.2 0
20:05 1032 30.47 861 25.43 7.3 45.2 62 0.6 33.1 0
20:06 1032 30.47 861 25.43 7.5 45.5 62 0.7 33.2 0
20:07 1032 30.47 861 25.43 7.6 45.6 62 0.8 33.5 0
20:08 1032 30.47 861 25.43 7.6 45.6 62 0.8 33.5 0
20:09 1032 30.47 861 25.43 7.7 45.8 62 0.9 33.6 0
20:10 1032 30.47 861 25.43 7.7 45.8 62 0.9 33.5 0
20:11 1032 30.47 861 25.43 7.7 45.8 62 1 33.7 0
20:12 1032 30.47 861 25.43 7.6 45.6 63 1 33.8 0
20:13 1032 30.47 861 25.43 7.5 45.5 63 1 33.8 0
20:14 1032 30.47 861 25.43 7.3 45.2 64 1 33.8 0
20:15 1032 30.47 861 25.43 7.2 44.9 65 1 33.9 0
20:16 1032 30.47 861 25.43 7 44.6 66 1.1 33.9 0
20:17 1032 30.47 861 25.43 6.8 44.2 66 1 33.8 0
20:18 1032 30.47 861 25.43 6.6 43.9 67 0.9 33.7 0
20:19 1032 30.47 861 25.43 6.4 43.5 68 0.9 33.6 0
20:20 1032 30.47 861 25.43 6.2 43.1 67 0.6 33 0
20:21 1032 30.47 861 25.43 6.1 43.1 67 0.4 32.7 0
20:22 1032 30.47 861 25.43 6.3 43.3 66 0.4 32.7 0
20:23 1032 30.47 861 25.43 6.5 43.7 65 0.5 32.9 0
20:24 1032 30.47 861 25.43 6.6 43.8 65 0.5 32.9 0
20:25 1032 30.47 861 25.43 6.6 43.8 65 0.5 32.9 0
20:26 1032 30.47 861 25.43 6.6 43.8 65 0.5 33 0
20:27 1032 30.47 861 25.43 6.6 43.9 65 0.5 32.9 0
20:28 1032 30.47 861 25.43 6.6 43.8 65 0.5 32.9 0
20:29 1032 30.47 861 25.43 6.6 43.8 65 0.5 33 0
20:30 1032 30.47 861 25.43 6.6 43.9 65 0.5 32.9 0
20:31 1032 30.47 861 25.43 6.7 44 65 0.6 33 0
20:32 1032 30.47 861 25.43 6.6 44 65 0.6 33.1 0
20:33 1032 30.47 861 25.43 6.5 43.7 66 0.5 33 0
20:34 1032 30.47 861 25.43 6.5 43.7 65 0.5 32.9 0
20:35 1032 30.47 861 25.43 6.5 43.7 65 0.5 32.8 0
20:36 1032 30.47 861 25.43 6.5 43.8 65 0.4 32.7 0
20:37 1032 30.47 861 25.43 6.6 43.9 64 0.4 32.7 0
20:38 1032 30.47 861 25.43 6.6 43.9 64 0.4 32.7 0
20:39 1032 30.47 861 25.43 6.6 43.8 65 0.4 32.7 0
20:40 1032 30.47 861 25.43 6.5 43.7 65 0.4 32.6 0
20:41 1032 30.47 861 25.43 6.4 43.6 65 0.4 32.7 0
20:42 1032 30.47 861 25.43 6.3 43.3 66 0.4 32.8 0
20:43 1032 30.47 861 25.43 6.2 43.1 66 0.4 32.7 0
20:44 1032 30.47 861 25.43 6.1 43 66 0.3 32.6 0
20:45 1032 30.47 861 25.43 6 42.9 67 0.3 32.6 0
20:46 1032 30.47 861 25.43 6 42.8 67 0.2 32.4 0
20:47 1032 30.47 861 25.43 6.1 42.9 66 0.3 32.5 0
20:48 1032 30.47 861 25.43 6 42.9 67 0.3 32.5 0
20:49 1032 30.47 861 25.43 6 42.8 67 0.3 32.6 0
20:50 1032 30.47 861 25.43 5.9 42.6 67 0.2 32.4 0
20:51 1032 30.47 861 25.43 5.9 42.6 67 0.2 32.4 0
20:52 1032 30.47 861 25.43 5.8 42.4 67 0.2 32.3 0
20:53 1032 30.47 861 25.43 5.8 42.4 67 0.2 32.4 0
20:54 1032 30.47 861 25.43 5.8 42.5 67 0.2 32.3 0
20:55 1032 30.47 861 25.43 5.9 42.6 67 0.2 32.3 0
20:56 1032 30.47 861 25.43 6 42.7 66 0.1 32.2 0
20:57 1032 30.47 861 25.43 6 42.9 66 0.1 32.3 0
20:58 1032 30.47 861 25.43 6.1 42.9 66 0.2 32.3 0
20:59 1032 30.47 861 25.43 6.1 42.9 66 0.2 32.3 0
21:00 1032 30.47 861 25.43 6.1 43 66 0.2 32.4 0
21:01 1032 30.47 861 25.43 6.2 43.1 66 0.3 32.5 0
21:02 1032 30.47 861 25.43 6.3 43.3 66 0.4 32.7 0
21:03 1032 30.47 861 25.43 6.3 43.3 66 0.4 32.7 0
21:04 1032 30.47 861 25.43 6.4 43.4 65 0.4 32.6 0
21:05 1032 30.47 861 25.43 6.4 43.5 66 0.5 32.8 0
21:06 1032 30.47 861 25.43 6.4 43.5 66 0.4 32.7 0
21:07 1032 30.47 861 25.43 6.4 43.5 66 0.4 32.7 0
21:08 1032 30.47 861 25.43 6.3 43.4 66 0.4 32.8 0
21:09 1032 30.47 861 25.43 6.3 43.3 66 0.4 32.7 0
21:10 1032 30.47 861 25.43 6.2 43.2 66 0.4 32.7 0
21:11 1032 30.47 861 25.43 6.2 43.2 66 0.4 32.8 0
21:12 1032 30.47 861 25.43 6.3 43.3 66 0.4 32.8 0
21:13 1032 30.47 861 25.43 6.3 43.4 66 0.4 32.8 0
21:14 1032 30.47 861 25.43 6.3 43.4 66 0.4 32.7 0
21:15 1032 30.47 861 25.43 6.4 43.4 65 0.3 32.5 0
21:16 1032 30.47 861 25.43 6.4 43.5 64 0.1 32.3 0
21:17 1032 30.47 861 25.43 6.5 43.6 63 -0.2 31.7 0
21:18 1032 30.47 861 25.43 6.7 44.1 60 -0.5 31.1 0
21:19 1032 30.47 861 25.43 7.1 44.7 59 -0.4 31.3 0
21:20 1032 30.47 861 25.43 7.2 45 59 -0.3 31.5 0
21:21 1032 30.47 861 25.43 7.4 45.3 58 -0.3 31.5 0
21:22 1032 30.47 861 25.43 7.5 45.6 58 -0.1 31.8 0
21:23 1032 30.47 861 25.43 7.7 45.8 58 0 32.1 0
21:24 1032 30.47 861 25.43 7.7 45.9 59 0.2 32.4 0
21:25 1032 30.47 861 25.43 7.8 46.1 59 0.2 32.4 0
21:26 1032 30.47 861 25.43 7.9 46.1 58 0.2 32.3 0
21:27 1032 30.47 861 25.43 7.9 46.3 58 0.3 32.6 0
21:28 1032 30.47 861 25.43 8 46.3 58 0.3 32.5 0
21:29 1032 30.47 861 25.43 8.1 46.5 58 0.4 32.7 0
21:30 1032 30.47 861 25.43 8 46.4 58 0.3 32.6 0
21:31 1032 30.47 861 25.43 8 46.3 58 0.3 32.5 0
21:32 1032 30.47 861 25.43 7.9 46.3 58 0.2 32.4 0
21:33 1032 30.47 861 25.43 7.9 46.3 58 0.2 32.4 0
21:34 1032 30.47 861 25.43 7.9 46.2 58 0.2 32.4 0
21:35 1032 30.47 861 25.43 7.9 46.2 58 0.3 32.5 0
21:36 1032 30.47 861 25.43 7.8 46.1 58 0.1 32.2 0
21:37 1032 30.47 861 25.43 8 46.3 58 0.2 32.4 0
21:38 1032 30.47 861 25.43 8 46.5 57 0.1 32.2 0
21:39 1032 30.47 861 25.43 8.1 46.5 57 0.1 32.2 0
21:40 1032 30.47 861 25.43 8.2 46.7 57 0.2 32.3 0
21:41 1032 30.47 861 25.43 8.2 46.7 57 0.2 32.4 0
21:42 1032 30.47 861 25.43 8.2 46.7 57 0.2 32.4 0
21:43 1032 30.47 861 25.43 8.1 46.7 57 0.2 32.4 0
21:44 1032 30.47 861 25.43 8.1 46.6 57 0.2 32.3 0
21:45 1032 30.47 861 25.43 8.1 46.5 58 0.3 32.5 0
21:46 1032 30.47 861 25.43 8 46.3 59 0.4 32.7 0
21:47 1032 30.47 861 25.43 7.7 45.8 59 0.2 32.4 0
21:48 1032 30.47 861 25.43 7.4 45.3 59 0 32 0
21:49 1032 30.47 861 25.43 7.2 45 60 -0.1 31.9 0
21:50 1032 30.47 861 25.43 7 44.6 60 -0.1 31.7 0
21:51 1031 30.45 861 25.43 6.8 44.2 61 -0.2 31.6 0
21:52 1031 30.45 861 25.43 6.5 43.8 61 -0.5 31.1 0
21:53 1031 30.45 861 25.43 6.3 43.3 61 -0.7 30.7 0
21:54 1031 30.45 861 25.43 5.8 42.5 62 -0.8 30.5 0
21:55 1031 30.45 861 25.43 5.5 41.9 64 -0.9 30.4 0
21:56 1031 30.45 861 25.43 5.2 41.4 65 -0.9 30.4 0
21:57 1031 30.45 861 25.43 5 41 65 -0.9 30.3 0
21:58 1031 30.45 861 25.43 4.9 40.7 66 -1 30.2 0
21:59 1031 30.45 861 25.43 4.7 40.4 67 -1 30.1 0
22:00 1031 30.45 861 25.43 4.5 40.1 67 -1.1 30.1 0
22:01 1031 30.45 861 25.43 4.5 40 67 -1.1 30 0
22:02 1031 30.45 861 25.43 4.3 39.8 68 -1.1 30 0
22:03 1031 30.45 861 25.43 4.1 39.4 69 -1.1 30.1 0
22:04 1031 30.45 861 25.43 4 39.2 69 -1.1 30 0
22:05 1031 30.45 861 25.43 3.9 39.1 70 -1.1 30.1 0
22:06 1031 30.45 861 25.43 4 39.2 69 -1.1 30 0
22:07 1031 30.45 861 25.43 4 39.2 69 -1.1 30 0
22:08 1031 30.45 861 25.43 3.9 39.1 70 -1.1 30 0
22:09 1031 30.45 861 25.43 4.1 39.3 69 -1.2 29.9 0
22:10 1031 30.45 861 25.43 4.3 39.8 68 -1.1 30 0
22:11 1031 30.45 861 25.43 4.2 39.6 68 -1.1 30.1 0
22:12 1031 30.45 861 25.43 4.2 39.6 69 -1 30.2 0
22:13 1031 30.45 861 25.43 4.4 39.9 68 -1.1 30.1 0
22:14 1031 30.45 861 25.43 4.4 40 68 -1 30.1 0
22:15 1031 30.45 861 25.43 4.3 39.8 68 -1.1 30.1 0
22:16 1031 30.45 861 25.43 4.2 39.5 69 -1.1 30.1 0
22:17 1031 30.45 861 25.43 4.1 39.4 69 -1.1 30 0
22:18 1031 30.45 861 25.43 4.3 39.8 67 -1.3 29.6 0
22:19 1031 30.45 861 25.43 4.5 40.2 66 -1.2 29.8 0
22:20 1031 30.45 861 25.43 4.6 40.3 65 -1.4 29.4 0
22:21 1031 30.45 861 25.43 4.9 40.8 63 -1.6 29.2 0
22:22 1031 30.45 861 25.43 5.1 41.2 62 -1.5 29.3 0
22:23 1031 30.45 861 25.43 5.2 41.4 62 -1.5 29.2 0
22:24 1031 30.45 861 25.43 5.5 42 61 -1.3 29.7 0
22:25 1031 30.45 861 25.43 5.7 42.2 62 -1 30.2 0
22:26 1031 30.45 861 25.43 5.9 42.5 62 -1 30.3 0
22:27 1031 30.45 861 25.43 6 42.9 60 -1 30.2 0
22:28 1031 30.45 861 25.43 6.2 43.2 60 -1 30.2 0
22:29 1031 30.45 861 25.43 6.4 43.5 59 -0.9 30.3 0
22:30 1031 30.45 861 25.43 6.6 43.9 59 -0.7 30.7 0
22:31 1031 30.45 861 25.43 6.8 44.3 60 -0.4 31.2 0
22:32 1031 30.45 861 25.43 6.9 44.3 60 -0.3 31.4 0
22:33 1031 30.45 861 25.43 6.8 44.3 61 -0.2 31.6 0
22:34 1031 30.45 861 25.43 6.8 44.2 61 -0.2 31.6 0
22:35 1031 30.45 861 25.43 6.7 44.1 61 -0.2 31.7 0
22:36 1031 30.45 861 25.43 6.7 44.1 62 -0.1 31.8 0
22:37 1031 30.45 861 25.43 6.6 43.9 62 -0.2 31.7 0
22:38 1031 30.45 861 25.43 6.5 43.7 62 -0.3 31.5 0
22:39 1031 30.45 861 25.43 6.4 43.5 61 -0.5 31.1 0
22:40 1031 30.45 861 25.43 6.3 43.3 61 -0.7 30.8 0
22:41 1031 30.45 861 25.43 6 42.8 61 -1 30.3 0
22:42 1031 30.45 861 25.43 5.7 42.3 62 -1 30.1 0
22:43 1031 30.45 861 25.43 5.5 41.9 63 -1 30.2 0
22:44 1031 30.45 861 25.43 5.4 41.7 64 -0.9 30.3 0
22:45 1031 30.45 861 25.43 5.4 41.8 65 -0.6 30.9 0
22:46 1031 30.45 861 25.43 5.5 42 65 -0.5 31.2 0
22:47 1031 30.45 861 25.43 5.5 41.9 62 -1.2 29.9 0
22:48 1031 30.45 861 25.43 5.4 41.7 62 -1.3 29.6 0
22:49 1031 30.45 861 25.43 5.3 41.5 63 -1.3 29.7 0
22:50 1031 30.45 861 25.43 5.1 41.2 63 -1.3 29.6 0
22:51 1031 30.45 861 25.43 4.9 40.8 64 -1.3 29.7 0
22:52 1031 30.45 861 25.43 4.7 40.4 65 -1.3 29.6 0
22:53 1031 30.45 861 25.43 4.6 40.3 65 -1.4 29.5 0
22:54 1031 30.45 861 25.43 4.7 40.5 64 -1.5 29.2 0
22:55 1031 30.45 861 25.43 4.9 40.8 63 -1.4 29.4 0
22:56 1031 30.45 861 25.43 5.1 41.1 63 -1.4 29.5 0
22:57 1031 30.45 861 25.43 5.3 41.5 62 -1.5 29.4 0
22:58 1031 30.45 861 25.43 5.4 41.7 60 -1.7 29 0
22:59 1031 30.45 861 25.43 5.7 42.3 59 -1.7 28.9 0
23:00 1031 30.45 861 25.43 6 42.8 57 -1.8 28.8 0
23:01 1031 30.45 861 25.43 6.2 43.1 57 -1.8 28.8 0
23:02 1031 30.45 861 25.43 6.2 43.2 57 -1.6 29.1 0
23:03 1031 30.45 861 25.43 6.3 43.3 57 -1.6 29.2 0
23:04 1031 30.45 861 25.43 6.3 43.3 58 -1.4 29.4 0
23:05 1031 30.45 861 25.43 6.2 43.2 58 -1.3 29.6 0
23:06 1031 30.45 860 25.4 6.1 43 59 -1.2 29.8 0
23:07 1031 30.45 860 25.4 5.9 42.7 60 -1.3 29.7 0
23:08 1031 30.45 860 25.4 5.7 42.2 61 -1.2 29.9 0
23:09 1031 30.45 860 25.4 5.5 41.9 63 -1.1 30.1 0
23:10 1031 30.45 860 25.4 5.5 41.9 62 -1.1 30 0
23:11 1031 30.45 860 25.4 5.8 42.4 62 -0.9 30.4 0
23:12 1031 30.45 860 25.4 5.9 42.7 62 -0.8 30.5 0
23:13 1031 30.45 860 25.4 6.2 43.2 61 -0.8 30.6 0
23:14 1031 30.45 860 25.4 6.6 43.9 59 -0.8 30.6 0
23:15 1031 30.45 860 25.4 7 44.7 58 -0.6 31 0
23:16 1031 30.45 860 25.4 7.2 45 58 -0.4 31.2 0
23:17 1031 30.45 860 25.4 7.2 45 58 -0.4 31.3 0
23:18 1031 30.45 860 25.4 7.2 45 58 -0.4 31.2 0
23:19 1031 30.45 860 25.4 7.2 45 58 -0.5 31.1 0
23:20 1031 30.45 860 25.4 7.2 45 58 -0.4 31.3 0
23:21 1031 30.45 860 25.4 7.1 44.8 59 -0.4 31.3 0
23:22 1031 30.45 860 25.4 6.9 44.4 59 -0.5 31.2 0
23:23 1031 30.45 860 25.4 6.7 44.1 60 -0.6 31 0
23:24 1031 30.45 860 25.4 6.5 43.8 60 -0.6 30.9 0
23:25 1031 30.45 860 25.4 6.4 43.5 61 -0.7 30.8 0
23:26 1031 30.45 860 25.4 6.3 43.3 61 -0.6 30.9 0
23:27 1031 30.45 860 25.4 6.1 43 62 -0.6 30.9 0
23:28 1031 30.45 860 25.4 5.8 42.5 63 -0.7 30.8 0
23:29 1031 30.45 860 25.4 5.5 42 64 -0.8 30.5 0
23:30 1031 30.45 860 25.4 5.2 41.4 64 -1.1 30.1 0
23:31 1031 30.45 860 25.4 5.1 41.1 62 -1.5 29.3 0
23:32 1031 30.45 860 25.4 5 41 63 -1.4 29.5 0
23:33 1031 30.45 860 25.4 4.9 40.7 64 -1.4 29.5 0
23:34 1031 30.45 860 25.4 4.6 40.3 64 -1.5 29.2 0
23:35 1031 30.45 860 25.4 4.3 39.7 66 -1.5 29.2 0
23:36 1031 30.45 860 25.4 4 39.2 67 -1.5 29.3 0
23:37 1031 30.45 860 25.4 3.8 38.9 68 -1.5 29.2 0
23:38 1031 30.45 860 25.4 3.7 38.7 68 -1.6 29 0
23:39 1031 30.45 860 25.4 3.7 38.6 67 -1.8 28.8 0
23:40 1031 30.45 860 25.4 3.7 38.6 67 -1.8 28.7 0
23:41 1031 30.45 860 25.4 3.7 38.7 67 -1.9 28.5 0
23:42 1031 30.45 860 25.4 3.8 38.9 67 -1.8 28.8 0
23:43 1031 30.45 860 25.4 3.7 38.7 67 -1.9 28.6 0
23:44 1031 30.45 860 25.4 3.8 38.8 67 -1.8 28.8 0
23:45 1031 30.45 860 25.4 3.7 38.7 66 -2 28.5 0
23:46 1031 30.45 860 25.4 3.8 38.8 67 -1.8 28.8 0
23:47 1031 30.45 860 25.4 3.9 39 66 -1.8 28.7 0
23:48 1031 30.45 860 25.4 4 39.2 66 -1.7 28.9 0
23:49 1031 30.45 860 25.4 4 39.3 65 -1.9 28.7 0
23:50 1031 30.45 860 25.4 4.1 39.3 65 -1.9 28.5 0
23:51 1031 30.45 860 25.4 4.2 39.6 64 -2 28.4 0
23:52 1031 30.45 860 25.4 4.4 39.9 62 -2.2 28.1 0
23:53 1031 30.45 860 25.4 4.7 40.5 61 -2.2 28.1 0
23:54 1031 30.45 860 25.4 4.9 40.7 61 -2.1 28.2 0
23:55 1031 30.45 860 25.4 4.9 40.9 60 -2.1 28.3 0
23:56 1031 30.45 860 25.4 4.9 40.9 59 -2.3 27.9 0
23:57 1031 30.45 860 25.4 5.1 41.1 60 -2.2 28.1 0
23:58 1031 30.45 860 25.4 5 41.1 59 -2.3 27.9 0
23:59 1031 30.45 860 25.4 5.1 41.2 59 -2.3 27.9 0
24:00 1031 30.45 860 25.4 5.1 41.2 60 -2.1 28.2 0